<?xml version="1.0" encoding="UTF-8" standalone="no" ?>
<gpx xmlns="http://www.topografix.com/GPX/1/1" xmlns:xsi="http://www.w3.org/2001/XMLSchema-instance" xsi:schemaLocation="http://www.topografix.com/GPX/1/1 http://www.topografix.com/GPX/1/1/gpx.xsd" version="1.1" creator="VisuGPX - https://www.visugpx.com">
  <metadata>
    <name>SKT</name>
  </metadata>
  <trk>
    <name><![CDATA[5665948-SKT2016]]></name>
    <trkseg>
      <trkpt lat="43.31266" lon="-1.5801">
        <ele>79</ele>
        <time>2019-12-19T14:42:59Z</time>
      </trkpt>
      <trkpt lat="43.31261" lon="-1.58017">
        <ele>79</ele>
        <time>2019-12-19T14:43:03Z</time>
      </trkpt>
      <trkpt lat="43.31252" lon="-1.58023">
        <ele>80</ele>
        <time>2019-12-19T14:43:08Z</time>
      </trkpt>
      <trkpt lat="43.31234" lon="-1.58024">
        <ele>79</ele>
        <time>2019-12-19T14:43:17Z</time>
      </trkpt>
      <trkpt lat="43.31202" lon="-1.58035">
        <ele>78</ele>
        <time>2019-12-19T14:43:33Z</time>
      </trkpt>
      <trkpt lat="43.312" lon="-1.58052">
        <ele>76</ele>
        <time>2019-12-19T14:43:39Z</time>
      </trkpt>
      <trkpt lat="43.31204" lon="-1.58101">
        <ele>74</ele>
        <time>2019-12-19T14:43:57Z</time>
      </trkpt>
      <trkpt lat="43.31203" lon="-1.58117">
        <ele>74</ele>
        <time>2019-12-19T14:44:03Z</time>
      </trkpt>
      <trkpt lat="43.31192" lon="-1.58159">
        <ele>72</ele>
        <time>2019-12-19T14:44:19Z</time>
      </trkpt>
      <trkpt lat="43.3117" lon="-1.58209">
        <ele>69</ele>
        <time>2019-12-19T14:44:41Z</time>
      </trkpt>
      <trkpt lat="43.31162" lon="-1.58236">
        <ele>68</ele>
        <time>2019-12-19T14:44:51Z</time>
      </trkpt>
      <trkpt lat="43.31155" lon="-1.58313">
        <ele>65</ele>
        <time>2019-12-19T14:45:20Z</time>
      </trkpt>
      <trkpt lat="43.31142" lon="-1.5838">
        <ele>62</ele>
        <time>2019-12-19T14:45:45Z</time>
      </trkpt>
      <trkpt lat="43.31146" lon="-1.58397">
        <ele>61</ele>
        <time>2019-12-19T14:45:51Z</time>
      </trkpt>
      <trkpt lat="43.3118" lon="-1.5846">
        <ele>61</ele>
        <time>2019-12-19T14:46:20Z</time>
      </trkpt>
      <trkpt lat="43.31198" lon="-1.58512">
        <ele>63</ele>
        <time>2019-12-19T14:46:41Z</time>
      </trkpt>
      <trkpt lat="43.31207" lon="-1.58578">
        <ele>66</ele>
        <time>2019-12-19T14:47:05Z</time>
      </trkpt>
      <trkpt lat="43.31208" lon="-1.58608">
        <ele>69</ele>
        <time>2019-12-19T14:47:16Z</time>
      </trkpt>
      <trkpt lat="43.31206" lon="-1.58623">
        <ele>71</ele>
        <time>2019-12-19T14:47:22Z</time>
      </trkpt>
      <trkpt lat="43.31197" lon="-1.58649">
        <ele>73</ele>
        <time>2019-12-19T14:47:32Z</time>
      </trkpt>
      <trkpt lat="43.31181" lon="-1.58667">
        <ele>75</ele>
        <time>2019-12-19T14:47:43Z</time>
      </trkpt>
      <trkpt lat="43.31169" lon="-1.58669">
        <ele>74</ele>
        <time>2019-12-19T14:47:49Z</time>
      </trkpt>
      <trkpt lat="43.31145" lon="-1.58665">
        <ele>73</ele>
        <time>2019-12-19T14:48:01Z</time>
      </trkpt>
      <trkpt lat="43.31125" lon="-1.58677">
        <ele>74</ele>
        <time>2019-12-19T14:48:12Z</time>
      </trkpt>
      <trkpt lat="43.31105" lon="-1.5871">
        <ele>77</ele>
        <time>2019-12-19T14:48:27Z</time>
      </trkpt>
      <trkpt lat="43.31069" lon="-1.58787">
        <ele>85</ele>
        <time>2019-12-19T14:49:01Z</time>
      </trkpt>
      <trkpt lat="43.31061" lon="-1.58811">
        <ele>86</ele>
        <time>2019-12-19T14:49:10Z</time>
      </trkpt>
      <trkpt lat="43.31054" lon="-1.58851">
        <ele>90</ele>
        <time>2019-12-19T14:49:25Z</time>
      </trkpt>
      <trkpt lat="43.31055" lon="-1.58866">
        <ele>92</ele>
        <time>2019-12-19T14:49:31Z</time>
      </trkpt>
      <trkpt lat="43.31062" lon="-1.5888">
        <ele>95</ele>
        <time>2019-12-19T14:49:37Z</time>
      </trkpt>
      <trkpt lat="43.31092" lon="-1.58915">
        <ele>104</ele>
        <time>2019-12-19T14:49:57Z</time>
      </trkpt>
      <trkpt lat="43.31097" lon="-1.58927">
        <ele>105</ele>
        <time>2019-12-19T14:50:02Z</time>
      </trkpt>
      <trkpt lat="43.31098" lon="-1.58942">
        <ele>107</ele>
        <time>2019-12-19T14:50:07Z</time>
      </trkpt>
      <trkpt lat="43.31095" lon="-1.58986">
        <ele>109</ele>
        <time>2019-12-19T14:50:23Z</time>
      </trkpt>
      <trkpt lat="43.31091" lon="-1.5901">
        <ele>109</ele>
        <time>2019-12-19T14:50:32Z</time>
      </trkpt>
      <trkpt lat="43.31092" lon="-1.59072">
        <ele>107</ele>
        <time>2019-12-19T14:50:55Z</time>
      </trkpt>
      <trkpt lat="43.3108" lon="-1.59131">
        <ele>106</ele>
        <time>2019-12-19T14:51:17Z</time>
      </trkpt>
      <trkpt lat="43.31072" lon="-1.59143">
        <ele>106</ele>
        <time>2019-12-19T14:51:23Z</time>
      </trkpt>
      <trkpt lat="43.31062" lon="-1.59146">
        <ele>106</ele>
        <time>2019-12-19T14:51:28Z</time>
      </trkpt>
      <trkpt lat="43.31053" lon="-1.59138">
        <ele>106</ele>
        <time>2019-12-19T14:51:33Z</time>
      </trkpt>
      <trkpt lat="43.31032" lon="-1.59103">
        <ele>101</ele>
        <time>2019-12-19T14:51:50Z</time>
      </trkpt>
      <trkpt lat="43.3102" lon="-1.59095">
        <ele>100</ele>
        <time>2019-12-19T14:51:57Z</time>
      </trkpt>
      <trkpt lat="43.31009" lon="-1.59092">
        <ele>99</ele>
        <time>2019-12-19T14:52:02Z</time>
      </trkpt>
      <trkpt lat="43.30999" lon="-1.59096">
        <ele>99</ele>
        <time>2019-12-19T14:52:08Z</time>
      </trkpt>
      <trkpt lat="43.30991" lon="-1.59104">
        <ele>100</ele>
        <time>2019-12-19T14:52:12Z</time>
      </trkpt>
      <trkpt lat="43.3098" lon="-1.59106">
        <ele>100</ele>
        <time>2019-12-19T14:52:18Z</time>
      </trkpt>
      <trkpt lat="43.30963" lon="-1.59116">
        <ele>100</ele>
        <time>2019-12-19T14:52:27Z</time>
      </trkpt>
      <trkpt lat="43.30952" lon="-1.59117">
        <ele>100</ele>
        <time>2019-12-19T14:52:33Z</time>
      </trkpt>
      <trkpt lat="43.30947" lon="-1.59127">
        <ele>101</ele>
        <time>2019-12-19T14:52:37Z</time>
      </trkpt>
      <trkpt lat="43.30952" lon="-1.59166">
        <ele>106</ele>
        <time>2019-12-19T14:52:52Z</time>
      </trkpt>
      <trkpt lat="43.3096" lon="-1.59199">
        <ele>109</ele>
        <time>2019-12-19T14:53:04Z</time>
      </trkpt>
      <trkpt lat="43.30992" lon="-1.59256">
        <ele>115</ele>
        <time>2019-12-19T14:53:31Z</time>
      </trkpt>
      <trkpt lat="43.30999" lon="-1.59291">
        <ele>119</ele>
        <time>2019-12-19T14:53:44Z</time>
      </trkpt>
      <trkpt lat="43.31001" lon="-1.59317">
        <ele>123</ele>
        <time>2019-12-19T14:53:53Z</time>
      </trkpt>
      <trkpt lat="43.3102" lon="-1.59366">
        <ele>138</ele>
        <time>2019-12-19T14:54:13Z</time>
      </trkpt>
      <trkpt lat="43.31027" lon="-1.59378">
        <ele>142</ele>
        <time>2019-12-19T14:54:19Z</time>
      </trkpt>
      <trkpt lat="43.31034" lon="-1.59416">
        <ele>151</ele>
        <time>2019-12-19T14:54:33Z</time>
      </trkpt>
      <trkpt lat="43.31047" lon="-1.59459">
        <ele>158</ele>
        <time>2019-12-19T14:54:50Z</time>
      </trkpt>
      <trkpt lat="43.31057" lon="-1.59475">
        <ele>160</ele>
        <time>2019-12-19T14:54:58Z</time>
      </trkpt>
      <trkpt lat="43.31078" lon="-1.59492">
        <ele>160</ele>
        <time>2019-12-19T14:55:10Z</time>
      </trkpt>
      <trkpt lat="43.31091" lon="-1.59507">
        <ele>164</ele>
        <time>2019-12-19T14:55:19Z</time>
      </trkpt>
      <trkpt lat="43.3112" lon="-1.59572">
        <ele>179</ele>
        <time>2019-12-19T14:55:46Z</time>
      </trkpt>
      <trkpt lat="43.31139" lon="-1.59607">
        <ele>186</ele>
        <time>2019-12-19T14:56:02Z</time>
      </trkpt>
      <trkpt lat="43.31168" lon="-1.59646">
        <ele>192</ele>
        <time>2019-12-19T14:56:23Z</time>
      </trkpt>
      <trkpt lat="43.31172" lon="-1.59658">
        <ele>194</ele>
        <time>2019-12-19T14:56:27Z</time>
      </trkpt>
      <trkpt lat="43.31172" lon="-1.5967">
        <ele>195</ele>
        <time>2019-12-19T14:56:32Z</time>
      </trkpt>
      <trkpt lat="43.31158" lon="-1.59699">
        <ele>197</ele>
        <time>2019-12-19T14:56:44Z</time>
      </trkpt>
      <trkpt lat="43.31156" lon="-1.59713">
        <ele>200</ele>
        <time>2019-12-19T14:56:50Z</time>
      </trkpt>
      <trkpt lat="43.31171" lon="-1.59735">
        <ele>203</ele>
        <time>2019-12-19T14:57:01Z</time>
      </trkpt>
      <trkpt lat="43.31172" lon="-1.59746">
        <ele>205</ele>
        <time>2019-12-19T14:57:05Z</time>
      </trkpt>
      <trkpt lat="43.31179" lon="-1.59765">
        <ele>210</ele>
        <time>2019-12-19T14:57:12Z</time>
      </trkpt>
      <trkpt lat="43.31206" lon="-1.59781">
        <ele>217</ele>
        <time>2019-12-19T14:57:27Z</time>
      </trkpt>
      <trkpt lat="43.31232" lon="-1.59801">
        <ele>222</ele>
        <time>2019-12-19T14:57:42Z</time>
      </trkpt>
      <trkpt lat="43.31256" lon="-1.59824">
        <ele>224</ele>
        <time>2019-12-19T14:57:57Z</time>
      </trkpt>
      <trkpt lat="43.31265" lon="-1.59827">
        <ele>226</ele>
        <time>2019-12-19T14:58:01Z</time>
      </trkpt>
      <trkpt lat="43.3128" lon="-1.59823">
        <ele>229</ele>
        <time>2019-12-19T14:58:09Z</time>
      </trkpt>
      <trkpt lat="43.31294" lon="-1.59824">
        <ele>231</ele>
        <time>2019-12-19T14:58:16Z</time>
      </trkpt>
      <trkpt lat="43.31301" lon="-1.59822">
        <ele>233</ele>
        <time>2019-12-19T14:58:20Z</time>
      </trkpt>
      <trkpt lat="43.31306" lon="-1.59813">
        <ele>234</ele>
        <time>2019-12-19T14:58:24Z</time>
      </trkpt>
      <trkpt lat="43.31308" lon="-1.59804">
        <ele>235</ele>
        <time>2019-12-19T14:58:27Z</time>
      </trkpt>
      <trkpt lat="43.31303" lon="-1.59791">
        <ele>235</ele>
        <time>2019-12-19T14:58:32Z</time>
      </trkpt>
      <trkpt lat="43.31277" lon="-1.59742">
        <ele>230</ele>
        <time>2019-12-19T14:58:55Z</time>
      </trkpt>
      <trkpt lat="43.31266" lon="-1.59716">
        <ele>230</ele>
        <time>2019-12-19T14:59:06Z</time>
      </trkpt>
      <trkpt lat="43.31258" lon="-1.59707">
        <ele>229</ele>
        <time>2019-12-19T14:59:11Z</time>
      </trkpt>
      <trkpt lat="43.31236" lon="-1.59605">
        <ele>224</ele>
        <time>2019-12-19T14:59:49Z</time>
      </trkpt>
      <trkpt lat="43.31231" lon="-1.59593">
        <ele>222</ele>
        <time>2019-12-19T14:59:54Z</time>
      </trkpt>
      <trkpt lat="43.31229" lon="-1.59564">
        <ele>219</ele>
        <time>2019-12-19T15:00:05Z</time>
      </trkpt>
      <trkpt lat="43.31222" lon="-1.59537">
        <ele>214</ele>
        <time>2019-12-19T15:00:16Z</time>
      </trkpt>
      <trkpt lat="43.31201" lon="-1.59502">
        <ele>205</ele>
        <time>2019-12-19T15:00:32Z</time>
      </trkpt>
      <trkpt lat="43.31189" lon="-1.59475">
        <ele>198</ele>
        <time>2019-12-19T15:00:44Z</time>
      </trkpt>
      <trkpt lat="43.31186" lon="-1.5946">
        <ele>196</ele>
        <time>2019-12-19T15:00:49Z</time>
      </trkpt>
      <trkpt lat="43.31187" lon="-1.59436">
        <ele>193</ele>
        <time>2019-12-19T15:00:58Z</time>
      </trkpt>
      <trkpt lat="43.31193" lon="-1.59428">
        <ele>193</ele>
        <time>2019-12-19T15:01:02Z</time>
      </trkpt>
      <trkpt lat="43.31246" lon="-1.59478">
        <ele>213</ele>
        <time>2019-12-19T15:01:34Z</time>
      </trkpt>
      <trkpt lat="43.31262" lon="-1.59497">
        <ele>219</ele>
        <time>2019-12-19T15:01:45Z</time>
      </trkpt>
      <trkpt lat="43.31265" lon="-1.59503">
        <ele>220</ele>
        <time>2019-12-19T15:01:48Z</time>
      </trkpt>
      <trkpt lat="43.31262" lon="-1.59517">
        <ele>223</ele>
        <time>2019-12-19T15:01:53Z</time>
      </trkpt>
      <trkpt lat="43.31279" lon="-1.59547">
        <ele>230</ele>
        <time>2019-12-19T15:02:07Z</time>
      </trkpt>
      <trkpt lat="43.31281" lon="-1.59556">
        <ele>232</ele>
        <time>2019-12-19T15:02:10Z</time>
      </trkpt>
      <trkpt lat="43.31292" lon="-1.59578">
        <ele>239</ele>
        <time>2019-12-19T15:02:20Z</time>
      </trkpt>
      <trkpt lat="43.31297" lon="-1.59599">
        <ele>242</ele>
        <time>2019-12-19T15:02:28Z</time>
      </trkpt>
      <trkpt lat="43.31307" lon="-1.59601">
        <ele>244</ele>
        <time>2019-12-19T15:02:33Z</time>
      </trkpt>
      <trkpt lat="43.31313" lon="-1.59599">
        <ele>246</ele>
        <time>2019-12-19T15:02:36Z</time>
      </trkpt>
      <trkpt lat="43.31321" lon="-1.59605">
        <ele>248</ele>
        <time>2019-12-19T15:02:41Z</time>
      </trkpt>
      <trkpt lat="43.31331" lon="-1.5962">
        <ele>252</ele>
        <time>2019-12-19T15:02:48Z</time>
      </trkpt>
      <trkpt lat="43.31353" lon="-1.59683">
        <ele>256</ele>
        <time>2019-12-19T15:03:13Z</time>
      </trkpt>
      <trkpt lat="43.3136" lon="-1.59696">
        <ele>256</ele>
        <time>2019-12-19T15:03:19Z</time>
      </trkpt>
      <trkpt lat="43.31382" lon="-1.59722">
        <ele>258</ele>
        <time>2019-12-19T15:03:34Z</time>
      </trkpt>
      <trkpt lat="43.31405" lon="-1.59741">
        <ele>263</ele>
        <time>2019-12-19T15:03:47Z</time>
      </trkpt>
      <trkpt lat="43.31424" lon="-1.59768">
        <ele>266</ele>
        <time>2019-12-19T15:04:01Z</time>
      </trkpt>
      <trkpt lat="43.31449" lon="-1.59818">
        <ele>267</ele>
        <time>2019-12-19T15:04:23Z</time>
      </trkpt>
      <trkpt lat="43.31475" lon="-1.59844">
        <ele>272</ele>
        <time>2019-12-19T15:04:39Z</time>
      </trkpt>
      <trkpt lat="43.31491" lon="-1.59875">
        <ele>280</ele>
        <time>2019-12-19T15:04:53Z</time>
      </trkpt>
      <trkpt lat="43.3152" lon="-1.59942">
        <ele>290</ele>
        <time>2019-12-19T15:05:21Z</time>
      </trkpt>
      <trkpt lat="43.31526" lon="-1.59978">
        <ele>293</ele>
        <time>2019-12-19T15:05:35Z</time>
      </trkpt>
      <trkpt lat="43.31541" lon="-1.60027">
        <ele>299</ele>
        <time>2019-12-19T15:05:54Z</time>
      </trkpt>
      <trkpt lat="43.31554" lon="-1.60054">
        <ele>303</ele>
        <time>2019-12-19T15:06:06Z</time>
      </trkpt>
      <trkpt lat="43.31577" lon="-1.60076">
        <ele>311</ele>
        <time>2019-12-19T15:06:20Z</time>
      </trkpt>
      <trkpt lat="43.316" lon="-1.60112">
        <ele>317</ele>
        <time>2019-12-19T15:06:37Z</time>
      </trkpt>
      <trkpt lat="43.31627" lon="-1.60174">
        <ele>328</ele>
        <time>2019-12-19T15:07:04Z</time>
      </trkpt>
      <trkpt lat="43.31654" lon="-1.60269">
        <ele>344</ele>
        <time>2019-12-19T15:07:41Z</time>
      </trkpt>
      <trkpt lat="43.31659" lon="-1.60314">
        <ele>352</ele>
        <time>2019-12-19T15:07:57Z</time>
      </trkpt>
      <trkpt lat="43.31657" lon="-1.60338">
        <ele>356</ele>
        <time>2019-12-19T15:08:06Z</time>
      </trkpt>
      <trkpt lat="43.31642" lon="-1.60383">
        <ele>364</ele>
        <time>2019-12-19T15:08:24Z</time>
      </trkpt>
      <trkpt lat="43.31627" lon="-1.60418">
        <ele>371</ele>
        <time>2019-12-19T15:08:39Z</time>
      </trkpt>
      <trkpt lat="43.31619" lon="-1.6045">
        <ele>380</ele>
        <time>2019-12-19T15:08:51Z</time>
      </trkpt>
      <trkpt lat="43.31612" lon="-1.60461">
        <ele>382</ele>
        <time>2019-12-19T15:08:57Z</time>
      </trkpt>
      <trkpt lat="43.31601" lon="-1.60492">
        <ele>390</ele>
        <time>2019-12-19T15:09:09Z</time>
      </trkpt>
      <trkpt lat="43.31582" lon="-1.60524">
        <ele>396</ele>
        <time>2019-12-19T15:09:24Z</time>
      </trkpt>
      <trkpt lat="43.31524" lon="-1.60591">
        <ele>415</ele>
        <time>2019-12-19T15:10:02Z</time>
      </trkpt>
      <trkpt lat="43.31514" lon="-1.60593">
        <ele>415</ele>
        <time>2019-12-19T15:10:07Z</time>
      </trkpt>
      <trkpt lat="43.31495" lon="-1.60586">
        <ele>414</ele>
        <time>2019-12-19T15:10:17Z</time>
      </trkpt>
      <trkpt lat="43.31475" lon="-1.60589">
        <ele>417</ele>
        <time>2019-12-19T15:10:27Z</time>
      </trkpt>
      <trkpt lat="43.31466" lon="-1.60586">
        <ele>418</ele>
        <time>2019-12-19T15:10:32Z</time>
      </trkpt>
      <trkpt lat="43.31441" lon="-1.60588">
        <ele>422</ele>
        <time>2019-12-19T15:10:44Z</time>
      </trkpt>
      <trkpt lat="43.31433" lon="-1.60586">
        <ele>422</ele>
        <time>2019-12-19T15:10:48Z</time>
      </trkpt>
      <trkpt lat="43.31426" lon="-1.60593">
        <ele>426</ele>
        <time>2019-12-19T15:10:53Z</time>
      </trkpt>
      <trkpt lat="43.31396" lon="-1.60595">
        <ele>434</ele>
        <time>2019-12-19T15:11:08Z</time>
      </trkpt>
      <trkpt lat="43.31378" lon="-1.60604">
        <ele>441</ele>
        <time>2019-12-19T15:11:17Z</time>
      </trkpt>
      <trkpt lat="43.3137" lon="-1.60602">
        <ele>443</ele>
        <time>2019-12-19T15:11:21Z</time>
      </trkpt>
      <trkpt lat="43.3136" lon="-1.60604">
        <ele>447</ele>
        <time>2019-12-19T15:11:26Z</time>
      </trkpt>
      <trkpt lat="43.31354" lon="-1.60608">
        <ele>449</ele>
        <time>2019-12-19T15:11:30Z</time>
      </trkpt>
      <trkpt lat="43.31336" lon="-1.60612">
        <ele>455</ele>
        <time>2019-12-19T15:11:39Z</time>
      </trkpt>
      <trkpt lat="43.31321" lon="-1.60619">
        <ele>460</ele>
        <time>2019-12-19T15:11:47Z</time>
      </trkpt>
      <trkpt lat="43.31297" lon="-1.60617">
        <ele>465</ele>
        <time>2019-12-19T15:11:59Z</time>
      </trkpt>
      <trkpt lat="43.3123" lon="-1.60584">
        <ele>464</ele>
        <time>2019-12-19T15:12:35Z</time>
      </trkpt>
      <trkpt lat="43.31219" lon="-1.60585">
        <ele>462</ele>
        <time>2019-12-19T15:12:40Z</time>
      </trkpt>
      <trkpt lat="43.3121" lon="-1.60579">
        <ele>459</ele>
        <time>2019-12-19T15:12:45Z</time>
      </trkpt>
      <trkpt lat="43.31203" lon="-1.60581">
        <ele>459</ele>
        <time>2019-12-19T15:12:49Z</time>
      </trkpt>
      <trkpt lat="43.31202" lon="-1.60588">
        <ele>459</ele>
        <time>2019-12-19T15:12:51Z</time>
      </trkpt>
      <trkpt lat="43.31205" lon="-1.60603">
        <ele>460</ele>
        <time>2019-12-19T15:12:57Z</time>
      </trkpt>
      <trkpt lat="43.31213" lon="-1.60611">
        <ele>463</ele>
        <time>2019-12-19T15:13:02Z</time>
      </trkpt>
      <trkpt lat="43.31214" lon="-1.60626">
        <ele>464</ele>
        <time>2019-12-19T15:13:07Z</time>
      </trkpt>
      <trkpt lat="43.31221" lon="-1.60637">
        <ele>468</ele>
        <time>2019-12-19T15:13:13Z</time>
      </trkpt>
      <trkpt lat="43.31223" lon="-1.60645">
        <ele>469</ele>
        <time>2019-12-19T15:13:16Z</time>
      </trkpt>
      <trkpt lat="43.3123" lon="-1.60656">
        <ele>473</ele>
        <time>2019-12-19T15:13:21Z</time>
      </trkpt>
      <trkpt lat="43.31236" lon="-1.60661">
        <ele>477</ele>
        <time>2019-12-19T15:13:25Z</time>
      </trkpt>
      <trkpt lat="43.31239" lon="-1.60695">
        <ele>480</ele>
        <time>2019-12-19T15:13:37Z</time>
      </trkpt>
      <trkpt lat="43.31266" lon="-1.60729">
        <ele>486</ele>
        <time>2019-12-19T15:13:55Z</time>
      </trkpt>
      <trkpt lat="43.31274" lon="-1.60744">
        <ele>487</ele>
        <time>2019-12-19T15:14:02Z</time>
      </trkpt>
      <trkpt lat="43.31296" lon="-1.60767">
        <ele>488</ele>
        <time>2019-12-19T15:14:16Z</time>
      </trkpt>
      <trkpt lat="43.3131" lon="-1.60791">
        <ele>490</ele>
        <time>2019-12-19T15:14:27Z</time>
      </trkpt>
      <trkpt lat="43.31321" lon="-1.60829">
        <ele>496</ele>
        <time>2019-12-19T15:14:42Z</time>
      </trkpt>
      <trkpt lat="43.31334" lon="-1.60861">
        <ele>500</ele>
        <time>2019-12-19T15:14:55Z</time>
      </trkpt>
      <trkpt lat="43.31329" lon="-1.60877">
        <ele>499</ele>
        <time>2019-12-19T15:15:02Z</time>
      </trkpt>
      <trkpt lat="43.31327" lon="-1.60898">
        <ele>498</ele>
        <time>2019-12-19T15:15:09Z</time>
      </trkpt>
      <trkpt lat="43.31349" lon="-1.60948">
        <ele>503</ele>
        <time>2019-12-19T15:15:31Z</time>
      </trkpt>
      <trkpt lat="43.31358" lon="-1.60955">
        <ele>505</ele>
        <time>2019-12-19T15:15:36Z</time>
      </trkpt>
      <trkpt lat="43.31366" lon="-1.60966">
        <ele>507</ele>
        <time>2019-12-19T15:15:42Z</time>
      </trkpt>
      <trkpt lat="43.31373" lon="-1.60977">
        <ele>508</ele>
        <time>2019-12-19T15:15:47Z</time>
      </trkpt>
      <trkpt lat="43.31378" lon="-1.60991">
        <ele>510</ele>
        <time>2019-12-19T15:15:53Z</time>
      </trkpt>
      <trkpt lat="43.31374" lon="-1.61039">
        <ele>507</ele>
        <time>2019-12-19T15:16:10Z</time>
      </trkpt>
      <trkpt lat="43.31377" lon="-1.61065">
        <ele>507</ele>
        <time>2019-12-19T15:16:20Z</time>
      </trkpt>
      <trkpt lat="43.31383" lon="-1.61089">
        <ele>507</ele>
        <time>2019-12-19T15:16:29Z</time>
      </trkpt>
      <trkpt lat="43.31396" lon="-1.61107">
        <ele>510</ele>
        <time>2019-12-19T15:16:38Z</time>
      </trkpt>
      <trkpt lat="43.31415" lon="-1.61125">
        <ele>515</ele>
        <time>2019-12-19T15:16:50Z</time>
      </trkpt>
      <trkpt lat="43.31433" lon="-1.6116">
        <ele>516</ele>
        <time>2019-12-19T15:17:05Z</time>
      </trkpt>
      <trkpt lat="43.31459" lon="-1.61243">
        <ele>519</ele>
        <time>2019-12-19T15:17:38Z</time>
      </trkpt>
      <trkpt lat="43.31458" lon="-1.61258">
        <ele>520</ele>
        <time>2019-12-19T15:17:44Z</time>
      </trkpt>
      <trkpt lat="43.31453" lon="-1.61274">
        <ele>520</ele>
        <time>2019-12-19T15:17:50Z</time>
      </trkpt>
      <trkpt lat="43.31452" lon="-1.61295">
        <ele>521</ele>
        <time>2019-12-19T15:17:58Z</time>
      </trkpt>
      <trkpt lat="43.31467" lon="-1.61346">
        <ele>526</ele>
        <time>2019-12-19T15:18:18Z</time>
      </trkpt>
      <trkpt lat="43.31478" lon="-1.61378">
        <ele>530</ele>
        <time>2019-12-19T15:18:31Z</time>
      </trkpt>
      <trkpt lat="43.31496" lon="-1.61419">
        <ele>538</ele>
        <time>2019-12-19T15:18:48Z</time>
      </trkpt>
      <trkpt lat="43.31506" lon="-1.61438">
        <ele>541</ele>
        <time>2019-12-19T15:18:57Z</time>
      </trkpt>
      <trkpt lat="43.31524" lon="-1.61464">
        <ele>543</ele>
        <time>2019-12-19T15:19:10Z</time>
      </trkpt>
      <trkpt lat="43.31536" lon="-1.61491">
        <ele>546</ele>
        <time>2019-12-19T15:19:21Z</time>
      </trkpt>
      <trkpt lat="43.31541" lon="-1.61512">
        <ele>549</ele>
        <time>2019-12-19T15:19:29Z</time>
      </trkpt>
      <trkpt lat="43.31541" lon="-1.61557">
        <ele>557</ele>
        <time>2019-12-19T15:19:46Z</time>
      </trkpt>
      <trkpt lat="43.31547" lon="-1.61612">
        <ele>564</ele>
        <time>2019-12-19T15:20:06Z</time>
      </trkpt>
      <trkpt lat="43.31552" lon="-1.61644">
        <ele>566</ele>
        <time>2019-12-19T15:20:18Z</time>
      </trkpt>
      <trkpt lat="43.31567" lon="-1.617">
        <ele>568</ele>
        <time>2019-12-19T15:20:40Z</time>
      </trkpt>
      <trkpt lat="43.31572" lon="-1.61738">
        <ele>571</ele>
        <time>2019-12-19T15:20:54Z</time>
      </trkpt>
      <trkpt lat="43.31584" lon="-1.61788">
        <ele>575</ele>
        <time>2019-12-19T15:21:13Z</time>
      </trkpt>
      <trkpt lat="43.31588" lon="-1.61838">
        <ele>581</ele>
        <time>2019-12-19T15:21:31Z</time>
      </trkpt>
      <trkpt lat="43.31594" lon="-1.61873">
        <ele>582</ele>
        <time>2019-12-19T15:21:44Z</time>
      </trkpt>
      <trkpt lat="43.31597" lon="-1.619">
        <ele>583</ele>
        <time>2019-12-19T15:21:54Z</time>
      </trkpt>
      <trkpt lat="43.31596" lon="-1.6198">
        <ele>590</ele>
        <time>2019-12-19T15:22:23Z</time>
      </trkpt>
      <trkpt lat="43.31603" lon="-1.62004">
        <ele>590</ele>
        <time>2019-12-19T15:22:33Z</time>
      </trkpt>
      <trkpt lat="43.3161" lon="-1.62061">
        <ele>590</ele>
        <time>2019-12-19T15:22:54Z</time>
      </trkpt>
      <trkpt lat="43.31613" lon="-1.62113">
        <ele>590</ele>
        <time>2019-12-19T15:23:13Z</time>
      </trkpt>
      <trkpt lat="43.31611" lon="-1.6215">
        <ele>590</ele>
        <time>2019-12-19T15:23:26Z</time>
      </trkpt>
      <trkpt lat="43.31618" lon="-1.62188">
        <ele>587</ele>
        <time>2019-12-19T15:23:41Z</time>
      </trkpt>
      <trkpt lat="43.3164" lon="-1.62254">
        <ele>580</ele>
        <time>2019-12-19T15:24:07Z</time>
      </trkpt>
      <trkpt lat="43.31639" lon="-1.62278">
        <ele>579</ele>
        <time>2019-12-19T15:24:16Z</time>
      </trkpt>
      <trkpt lat="43.31632" lon="-1.62308">
        <ele>577</ele>
        <time>2019-12-19T15:24:27Z</time>
      </trkpt>
      <trkpt lat="43.31623" lon="-1.6231">
        <ele>577</ele>
        <time>2019-12-19T15:24:32Z</time>
      </trkpt>
      <trkpt lat="43.31613" lon="-1.62302">
        <ele>577</ele>
        <time>2019-12-19T15:24:38Z</time>
      </trkpt>
      <trkpt lat="43.31602" lon="-1.62303">
        <ele>576</ele>
        <time>2019-12-19T15:24:43Z</time>
      </trkpt>
      <trkpt lat="43.3157" lon="-1.62314">
        <ele>570</ele>
        <time>2019-12-19T15:25:00Z</time>
      </trkpt>
      <trkpt lat="43.31561" lon="-1.62325">
        <ele>567</ele>
        <time>2019-12-19T15:25:06Z</time>
      </trkpt>
      <trkpt lat="43.3154" lon="-1.62339">
        <ele>560</ele>
        <time>2019-12-19T15:25:17Z</time>
      </trkpt>
      <trkpt lat="43.31533" lon="-1.62351">
        <ele>557</ele>
        <time>2019-12-19T15:25:23Z</time>
      </trkpt>
      <trkpt lat="43.31522" lon="-1.62362">
        <ele>554</ele>
        <time>2019-12-19T15:25:30Z</time>
      </trkpt>
      <trkpt lat="43.31497" lon="-1.62397">
        <ele>548</ele>
        <time>2019-12-19T15:25:48Z</time>
      </trkpt>
      <trkpt lat="43.31478" lon="-1.62415">
        <ele>546</ele>
        <time>2019-12-19T15:25:59Z</time>
      </trkpt>
      <trkpt lat="43.31467" lon="-1.62418">
        <ele>546</ele>
        <time>2019-12-19T15:26:05Z</time>
      </trkpt>
      <trkpt lat="43.31435" lon="-1.62434">
        <ele>545</ele>
        <time>2019-12-19T15:26:22Z</time>
      </trkpt>
      <trkpt lat="43.31424" lon="-1.62435">
        <ele>545</ele>
        <time>2019-12-19T15:26:27Z</time>
      </trkpt>
      <trkpt lat="43.31414" lon="-1.62432">
        <ele>545</ele>
        <time>2019-12-19T15:26:32Z</time>
      </trkpt>
      <trkpt lat="43.31393" lon="-1.62418">
        <ele>546</ele>
        <time>2019-12-19T15:26:44Z</time>
      </trkpt>
      <trkpt lat="43.3133" lon="-1.62395">
        <ele>550</ele>
        <time>2019-12-19T15:27:17Z</time>
      </trkpt>
      <trkpt lat="43.31319" lon="-1.62394">
        <ele>553</ele>
        <time>2019-12-19T15:27:22Z</time>
      </trkpt>
      <trkpt lat="43.31309" lon="-1.62398">
        <ele>556</ele>
        <time>2019-12-19T15:27:27Z</time>
      </trkpt>
      <trkpt lat="43.31293" lon="-1.62398">
        <ele>560</ele>
        <time>2019-12-19T15:27:35Z</time>
      </trkpt>
      <trkpt lat="43.31228" lon="-1.62378">
        <ele>576</ele>
        <time>2019-12-19T15:28:09Z</time>
      </trkpt>
      <trkpt lat="43.31201" lon="-1.62374">
        <ele>583</ele>
        <time>2019-12-19T15:28:22Z</time>
      </trkpt>
      <trkpt lat="43.31182" lon="-1.62376">
        <ele>589</ele>
        <time>2019-12-19T15:28:32Z</time>
      </trkpt>
      <trkpt lat="43.31166" lon="-1.62367">
        <ele>592</ele>
        <time>2019-12-19T15:28:40Z</time>
      </trkpt>
      <trkpt lat="43.31145" lon="-1.62361">
        <ele>598</ele>
        <time>2019-12-19T15:28:51Z</time>
      </trkpt>
      <trkpt lat="43.31122" lon="-1.62347">
        <ele>603</ele>
        <time>2019-12-19T15:29:04Z</time>
      </trkpt>
      <trkpt lat="43.31111" lon="-1.62347">
        <ele>606</ele>
        <time>2019-12-19T15:29:09Z</time>
      </trkpt>
      <trkpt lat="43.31082" lon="-1.62334">
        <ele>613</ele>
        <time>2019-12-19T15:29:25Z</time>
      </trkpt>
      <trkpt lat="43.31034" lon="-1.62308">
        <ele>624</ele>
        <time>2019-12-19T15:29:50Z</time>
      </trkpt>
      <trkpt lat="43.31007" lon="-1.62288">
        <ele>628</ele>
        <time>2019-12-19T15:30:06Z</time>
      </trkpt>
      <trkpt lat="43.30989" lon="-1.62283">
        <ele>633</ele>
        <time>2019-12-19T15:30:15Z</time>
      </trkpt>
      <trkpt lat="43.30981" lon="-1.62285">
        <ele>636</ele>
        <time>2019-12-19T15:30:19Z</time>
      </trkpt>
      <trkpt lat="43.30964" lon="-1.62271">
        <ele>639</ele>
        <time>2019-12-19T15:30:29Z</time>
      </trkpt>
      <trkpt lat="43.30939" lon="-1.62258">
        <ele>645</ele>
        <time>2019-12-19T15:30:42Z</time>
      </trkpt>
      <trkpt lat="43.30885" lon="-1.62219">
        <ele>655</ele>
        <time>2019-12-19T15:31:13Z</time>
      </trkpt>
      <trkpt lat="43.30877" lon="-1.62215">
        <ele>657</ele>
        <time>2019-12-19T15:31:17Z</time>
      </trkpt>
      <trkpt lat="43.30871" lon="-1.62215">
        <ele>660</ele>
        <time>2019-12-19T15:31:20Z</time>
      </trkpt>
      <trkpt lat="43.30854" lon="-1.62198">
        <ele>661</ele>
        <time>2019-12-19T15:31:31Z</time>
      </trkpt>
      <trkpt lat="43.30811" lon="-1.62163">
        <ele>669</ele>
        <time>2019-12-19T15:31:56Z</time>
      </trkpt>
      <trkpt lat="43.30786" lon="-1.62146">
        <ele>678</ele>
        <time>2019-12-19T15:32:10Z</time>
      </trkpt>
      <trkpt lat="43.30777" lon="-1.62137">
        <ele>681</ele>
        <time>2019-12-19T15:32:15Z</time>
      </trkpt>
      <trkpt lat="43.30767" lon="-1.62134">
        <ele>686</ele>
        <time>2019-12-19T15:32:20Z</time>
      </trkpt>
      <trkpt lat="43.30752" lon="-1.62124">
        <ele>692</ele>
        <time>2019-12-19T15:32:29Z</time>
      </trkpt>
      <trkpt lat="43.30737" lon="-1.62109">
        <ele>693</ele>
        <time>2019-12-19T15:32:38Z</time>
      </trkpt>
      <trkpt lat="43.30719" lon="-1.62103">
        <ele>696</ele>
        <time>2019-12-19T15:32:47Z</time>
      </trkpt>
      <trkpt lat="43.30698" lon="-1.62085">
        <ele>697</ele>
        <time>2019-12-19T15:33:00Z</time>
      </trkpt>
      <trkpt lat="43.30691" lon="-1.62086">
        <ele>699</ele>
        <time>2019-12-19T15:33:03Z</time>
      </trkpt>
      <trkpt lat="43.30692" lon="-1.62099">
        <ele>702</ele>
        <time>2019-12-19T15:33:08Z</time>
      </trkpt>
      <trkpt lat="43.30688" lon="-1.62117">
        <ele>707</ele>
        <time>2019-12-19T15:33:15Z</time>
      </trkpt>
      <trkpt lat="43.30691" lon="-1.62129">
        <ele>709</ele>
        <time>2019-12-19T15:33:19Z</time>
      </trkpt>
      <trkpt lat="43.30686" lon="-1.62141">
        <ele>713</ele>
        <time>2019-12-19T15:33:24Z</time>
      </trkpt>
      <trkpt lat="43.30686" lon="-1.62161">
        <ele>718</ele>
        <time>2019-12-19T15:33:32Z</time>
      </trkpt>
      <trkpt lat="43.30691" lon="-1.62176">
        <ele>721</ele>
        <time>2019-12-19T15:33:38Z</time>
      </trkpt>
      <trkpt lat="43.30686" lon="-1.62194">
        <ele>727</ele>
        <time>2019-12-19T15:33:45Z</time>
      </trkpt>
      <trkpt lat="43.30694" lon="-1.62201">
        <ele>727</ele>
        <time>2019-12-19T15:33:49Z</time>
      </trkpt>
      <trkpt lat="43.3069" lon="-1.62216">
        <ele>732</ele>
        <time>2019-12-19T15:33:55Z</time>
      </trkpt>
      <trkpt lat="43.30692" lon="-1.62231">
        <ele>736</ele>
        <time>2019-12-19T15:34:01Z</time>
      </trkpt>
      <trkpt lat="43.30678" lon="-1.62251">
        <ele>744</ele>
        <time>2019-12-19T15:34:11Z</time>
      </trkpt>
      <trkpt lat="43.30682" lon="-1.62279">
        <ele>751</ele>
        <time>2019-12-19T15:34:21Z</time>
      </trkpt>
      <trkpt lat="43.30681" lon="-1.62287">
        <ele>754</ele>
        <time>2019-12-19T15:34:24Z</time>
      </trkpt>
      <trkpt lat="43.30686" lon="-1.62298">
        <ele>756</ele>
        <time>2019-12-19T15:34:29Z</time>
      </trkpt>
      <trkpt lat="43.3068" lon="-1.62312">
        <ele>761</ele>
        <time>2019-12-19T15:34:35Z</time>
      </trkpt>
      <trkpt lat="43.30678" lon="-1.62325">
        <ele>765</ele>
        <time>2019-12-19T15:34:40Z</time>
      </trkpt>
      <trkpt lat="43.30686" lon="-1.62334">
        <ele>767</ele>
        <time>2019-12-19T15:34:45Z</time>
      </trkpt>
      <trkpt lat="43.30687" lon="-1.62341">
        <ele>768</ele>
        <time>2019-12-19T15:34:47Z</time>
      </trkpt>
      <trkpt lat="43.30668" lon="-1.62382">
        <ele>777</ele>
        <time>2019-12-19T15:35:05Z</time>
      </trkpt>
      <trkpt lat="43.30663" lon="-1.62396">
        <ele>779</ele>
        <time>2019-12-19T15:35:11Z</time>
      </trkpt>
      <trkpt lat="43.3066" lon="-1.62416">
        <ele>782</ele>
        <time>2019-12-19T15:35:18Z</time>
      </trkpt>
      <trkpt lat="43.30663" lon="-1.62423">
        <ele>784</ele>
        <time>2019-12-19T15:35:21Z</time>
      </trkpt>
      <trkpt lat="43.3067" lon="-1.62428">
        <ele>786</ele>
        <time>2019-12-19T15:35:25Z</time>
      </trkpt>
      <trkpt lat="43.30674" lon="-1.62435">
        <ele>787</ele>
        <time>2019-12-19T15:35:28Z</time>
      </trkpt>
      <trkpt lat="43.30682" lon="-1.62442">
        <ele>787</ele>
        <time>2019-12-19T15:35:33Z</time>
      </trkpt>
      <trkpt lat="43.30688" lon="-1.62444">
        <ele>787</ele>
        <time>2019-12-19T15:35:36Z</time>
      </trkpt>
      <trkpt lat="43.30696" lon="-1.62453">
        <ele>788</ele>
        <time>2019-12-19T15:35:41Z</time>
      </trkpt>
      <trkpt lat="43.30705" lon="-1.62499">
        <ele>793</ele>
        <time>2019-12-19T15:35:59Z</time>
      </trkpt>
      <trkpt lat="43.30695" lon="-1.62508">
        <ele>796</ele>
        <time>2019-12-19T15:36:05Z</time>
      </trkpt>
      <trkpt lat="43.30687" lon="-1.62527">
        <ele>800</ele>
        <time>2019-12-19T15:36:13Z</time>
      </trkpt>
      <trkpt lat="43.30678" lon="-1.62595">
        <ele>812</ele>
        <time>2019-12-19T15:36:38Z</time>
      </trkpt>
      <trkpt lat="43.3068" lon="-1.62627">
        <ele>816</ele>
        <time>2019-12-19T15:36:50Z</time>
      </trkpt>
      <trkpt lat="43.30686" lon="-1.62657">
        <ele>819</ele>
        <time>2019-12-19T15:37:01Z</time>
      </trkpt>
      <trkpt lat="43.30688" lon="-1.62692">
        <ele>824</ele>
        <time>2019-12-19T15:37:14Z</time>
      </trkpt>
      <trkpt lat="43.30686" lon="-1.62734">
        <ele>831</ele>
        <time>2019-12-19T15:37:29Z</time>
      </trkpt>
      <trkpt lat="43.30689" lon="-1.62777">
        <ele>836</ele>
        <time>2019-12-19T15:37:45Z</time>
      </trkpt>
      <trkpt lat="43.30694" lon="-1.62789">
        <ele>836</ele>
        <time>2019-12-19T15:37:50Z</time>
      </trkpt>
      <trkpt lat="43.30698" lon="-1.62814">
        <ele>837</ele>
        <time>2019-12-19T15:37:59Z</time>
      </trkpt>
      <trkpt lat="43.30692" lon="-1.62842">
        <ele>840</ele>
        <time>2019-12-19T15:38:10Z</time>
      </trkpt>
      <trkpt lat="43.30692" lon="-1.6286">
        <ele>841</ele>
        <time>2019-12-19T15:38:16Z</time>
      </trkpt>
      <trkpt lat="43.30697" lon="-1.62857">
        <ele>840</ele>
        <time>2019-12-19T15:38:19Z</time>
      </trkpt>
      <trkpt lat="43.30689" lon="-1.62873">
        <ele>842</ele>
        <time>2019-12-19T15:38:26Z</time>
      </trkpt>
      <trkpt lat="43.30689" lon="-1.62892">
        <ele>843</ele>
        <time>2019-12-19T15:38:33Z</time>
      </trkpt>
      <trkpt lat="43.30678" lon="-1.6292">
        <ele>844</ele>
        <time>2019-12-19T15:38:45Z</time>
      </trkpt>
      <trkpt lat="43.30683" lon="-1.62944">
        <ele>845</ele>
        <time>2019-12-19T15:38:54Z</time>
      </trkpt>
      <trkpt lat="43.30696" lon="-1.62974">
        <ele>846</ele>
        <time>2019-12-19T15:39:06Z</time>
      </trkpt>
      <trkpt lat="43.30697" lon="-1.62982">
        <ele>847</ele>
        <time>2019-12-19T15:39:09Z</time>
      </trkpt>
      <trkpt lat="43.30689" lon="-1.63006">
        <ele>848</ele>
        <time>2019-12-19T15:39:19Z</time>
      </trkpt>
      <trkpt lat="43.3069" lon="-1.63034">
        <ele>848</ele>
        <time>2019-12-19T15:39:29Z</time>
      </trkpt>
      <trkpt lat="43.30683" lon="-1.63048">
        <ele>848</ele>
        <time>2019-12-19T15:39:35Z</time>
      </trkpt>
      <trkpt lat="43.30666" lon="-1.6306">
        <ele>847</ele>
        <time>2019-12-19T15:39:45Z</time>
      </trkpt>
      <trkpt lat="43.30652" lon="-1.63063">
        <ele>841</ele>
        <time>2019-12-19T15:39:52Z</time>
      </trkpt>
      <trkpt lat="43.30648" lon="-1.63072">
        <ele>840</ele>
        <time>2019-12-19T15:39:56Z</time>
      </trkpt>
      <trkpt lat="43.30629" lon="-1.63141">
        <ele>833</ele>
        <time>2019-12-19T15:40:23Z</time>
      </trkpt>
      <trkpt lat="43.30609" lon="-1.63227">
        <ele>823</ele>
        <time>2019-12-19T15:40:56Z</time>
      </trkpt>
      <trkpt lat="43.30611" lon="-1.63259">
        <ele>821</ele>
        <time>2019-12-19T15:41:07Z</time>
      </trkpt>
      <trkpt lat="43.30602" lon="-1.63245">
        <ele>820</ele>
        <time>2019-12-19T15:41:14Z</time>
      </trkpt>
      <trkpt lat="43.30593" lon="-1.6322">
        <ele>816</ele>
        <time>2019-12-19T15:41:24Z</time>
      </trkpt>
      <trkpt lat="43.30583" lon="-1.63217">
        <ele>811</ele>
        <time>2019-12-19T15:41:29Z</time>
      </trkpt>
      <trkpt lat="43.30575" lon="-1.63246">
        <ele>804</ele>
        <time>2019-12-19T15:41:41Z</time>
      </trkpt>
      <trkpt lat="43.30594" lon="-1.63297">
        <ele>801</ele>
        <time>2019-12-19T15:42:02Z</time>
      </trkpt>
      <trkpt lat="43.30586" lon="-1.63287">
        <ele>800</ele>
        <time>2019-12-19T15:42:07Z</time>
      </trkpt>
      <trkpt lat="43.30575" lon="-1.63279">
        <ele>796</ele>
        <time>2019-12-19T15:42:13Z</time>
      </trkpt>
      <trkpt lat="43.30566" lon="-1.63286">
        <ele>788</ele>
        <time>2019-12-19T15:42:18Z</time>
      </trkpt>
      <trkpt lat="43.30616" lon="-1.63399">
        <ele>778</ele>
        <time>2019-12-19T15:43:07Z</time>
      </trkpt>
      <trkpt lat="43.30642" lon="-1.6348">
        <ele>762</ele>
        <time>2019-12-19T15:43:39Z</time>
      </trkpt>
      <trkpt lat="43.30644" lon="-1.63498">
        <ele>757</ele>
        <time>2019-12-19T15:43:45Z</time>
      </trkpt>
      <trkpt lat="43.30661" lon="-1.63542">
        <ele>749</ele>
        <time>2019-12-19T15:44:04Z</time>
      </trkpt>
      <trkpt lat="43.30665" lon="-1.63529">
        <ele>755</ele>
        <time>2019-12-19T15:44:09Z</time>
      </trkpt>
      <trkpt lat="43.30654" lon="-1.63521">
        <ele>753</ele>
        <time>2019-12-19T15:44:15Z</time>
      </trkpt>
      <trkpt lat="43.3061" lon="-1.63499">
        <ele>741</ele>
        <time>2019-12-19T15:44:38Z</time>
      </trkpt>
      <trkpt lat="43.30589" lon="-1.63495">
        <ele>733</ele>
        <time>2019-12-19T15:44:49Z</time>
      </trkpt>
      <trkpt lat="43.30546" lon="-1.6348">
        <ele>720</ele>
        <time>2019-12-19T15:45:11Z</time>
      </trkpt>
      <trkpt lat="43.30505" lon="-1.63458">
        <ele>709</ele>
        <time>2019-12-19T15:45:33Z</time>
      </trkpt>
      <trkpt lat="43.30496" lon="-1.63463">
        <ele>704</ele>
        <time>2019-12-19T15:45:38Z</time>
      </trkpt>
      <trkpt lat="43.30509" lon="-1.63531">
        <ele>689</ele>
        <time>2019-12-19T15:46:04Z</time>
      </trkpt>
      <trkpt lat="43.30498" lon="-1.63534">
        <ele>684</ele>
        <time>2019-12-19T15:46:09Z</time>
      </trkpt>
      <trkpt lat="43.30466" lon="-1.63524">
        <ele>674</ele>
        <time>2019-12-19T15:46:26Z</time>
      </trkpt>
      <trkpt lat="43.30415" lon="-1.6349">
        <ele>660</ele>
        <time>2019-12-19T15:46:54Z</time>
      </trkpt>
      <trkpt lat="43.30411" lon="-1.63506">
        <ele>655</ele>
        <time>2019-12-19T15:47:00Z</time>
      </trkpt>
      <trkpt lat="43.30415" lon="-1.63518">
        <ele>654</ele>
        <time>2019-12-19T15:47:05Z</time>
      </trkpt>
      <trkpt lat="43.30423" lon="-1.63569">
        <ele>646</ele>
        <time>2019-12-19T15:47:24Z</time>
      </trkpt>
      <trkpt lat="43.30442" lon="-1.63642">
        <ele>636</ele>
        <time>2019-12-19T15:47:52Z</time>
      </trkpt>
      <trkpt lat="43.30462" lon="-1.63679">
        <ele>632</ele>
        <time>2019-12-19T15:48:09Z</time>
      </trkpt>
      <trkpt lat="43.30467" lon="-1.63693">
        <ele>630</ele>
        <time>2019-12-19T15:48:15Z</time>
      </trkpt>
      <trkpt lat="43.30455" lon="-1.63696">
        <ele>626</ele>
        <time>2019-12-19T15:48:21Z</time>
      </trkpt>
      <trkpt lat="43.30435" lon="-1.63685">
        <ele>623</ele>
        <time>2019-12-19T15:48:32Z</time>
      </trkpt>
      <trkpt lat="43.30412" lon="-1.63679">
        <ele>619</ele>
        <time>2019-12-19T15:48:43Z</time>
      </trkpt>
      <trkpt lat="43.30389" lon="-1.63669">
        <ele>614</ele>
        <time>2019-12-19T15:48:55Z</time>
      </trkpt>
      <trkpt lat="43.30355" lon="-1.63661">
        <ele>605</ele>
        <time>2019-12-19T15:49:13Z</time>
      </trkpt>
      <trkpt lat="43.30348" lon="-1.63676">
        <ele>601</ele>
        <time>2019-12-19T15:49:19Z</time>
      </trkpt>
      <trkpt lat="43.30346" lon="-1.63704">
        <ele>596</ele>
        <time>2019-12-19T15:49:29Z</time>
      </trkpt>
      <trkpt lat="43.30348" lon="-1.63764">
        <ele>587</ele>
        <time>2019-12-19T15:49:51Z</time>
      </trkpt>
      <trkpt lat="43.30339" lon="-1.6377">
        <ele>584</ele>
        <time>2019-12-19T15:49:56Z</time>
      </trkpt>
      <trkpt lat="43.30319" lon="-1.63752">
        <ele>583</ele>
        <time>2019-12-19T15:50:08Z</time>
      </trkpt>
      <trkpt lat="43.30295" lon="-1.63746">
        <ele>577</ele>
        <time>2019-12-19T15:50:20Z</time>
      </trkpt>
      <trkpt lat="43.30288" lon="-1.63735">
        <ele>576</ele>
        <time>2019-12-19T15:50:26Z</time>
      </trkpt>
      <trkpt lat="43.30277" lon="-1.63707">
        <ele>575</ele>
        <time>2019-12-19T15:50:37Z</time>
      </trkpt>
      <trkpt lat="43.30261" lon="-1.63684">
        <ele>571</ele>
        <time>2019-12-19T15:50:49Z</time>
      </trkpt>
      <trkpt lat="43.30257" lon="-1.63671">
        <ele>570</ele>
        <time>2019-12-19T15:50:54Z</time>
      </trkpt>
      <trkpt lat="43.30251" lon="-1.63642">
        <ele>572</ele>
        <time>2019-12-19T15:51:05Z</time>
      </trkpt>
      <trkpt lat="43.30249" lon="-1.63612">
        <ele>575</ele>
        <time>2019-12-19T15:51:16Z</time>
      </trkpt>
      <trkpt lat="43.30228" lon="-1.63558">
        <ele>574</ele>
        <time>2019-12-19T15:51:38Z</time>
      </trkpt>
      <trkpt lat="43.30219" lon="-1.63528">
        <ele>574</ele>
        <time>2019-12-19T15:51:50Z</time>
      </trkpt>
      <trkpt lat="43.30211" lon="-1.63482">
        <ele>574</ele>
        <time>2019-12-19T15:52:07Z</time>
      </trkpt>
      <trkpt lat="43.30206" lon="-1.63435">
        <ele>574</ele>
        <time>2019-12-19T15:52:25Z</time>
      </trkpt>
      <trkpt lat="43.30191" lon="-1.63361">
        <ele>566</ele>
        <time>2019-12-19T15:52:53Z</time>
      </trkpt>
      <trkpt lat="43.30191" lon="-1.63331">
        <ele>566</ele>
        <time>2019-12-19T15:53:04Z</time>
      </trkpt>
      <trkpt lat="43.30196" lon="-1.63317">
        <ele>569</ele>
        <time>2019-12-19T15:53:09Z</time>
      </trkpt>
      <trkpt lat="43.30198" lon="-1.63302">
        <ele>570</ele>
        <time>2019-12-19T15:53:15Z</time>
      </trkpt>
      <trkpt lat="43.30195" lon="-1.63288">
        <ele>568</ele>
        <time>2019-12-19T15:53:20Z</time>
      </trkpt>
      <trkpt lat="43.30159" lon="-1.63201">
        <ele>549</ele>
        <time>2019-12-19T15:53:57Z</time>
      </trkpt>
      <trkpt lat="43.30157" lon="-1.63169">
        <ele>548</ele>
        <time>2019-12-19T15:54:08Z</time>
      </trkpt>
      <trkpt lat="43.30153" lon="-1.63152">
        <ele>546</ele>
        <time>2019-12-19T15:54:15Z</time>
      </trkpt>
      <trkpt lat="43.30133" lon="-1.63111">
        <ele>534</ele>
        <time>2019-12-19T15:54:33Z</time>
      </trkpt>
      <trkpt lat="43.30125" lon="-1.63077">
        <ele>530</ele>
        <time>2019-12-19T15:54:46Z</time>
      </trkpt>
      <trkpt lat="43.30126" lon="-1.63047">
        <ele>532</ele>
        <time>2019-12-19T15:54:57Z</time>
      </trkpt>
      <trkpt lat="43.30136" lon="-1.63004">
        <ele>539</ele>
        <time>2019-12-19T15:55:13Z</time>
      </trkpt>
      <trkpt lat="43.3013" lon="-1.62974">
        <ele>542</ele>
        <time>2019-12-19T15:55:24Z</time>
      </trkpt>
      <trkpt lat="43.30125" lon="-1.62959">
        <ele>544</ele>
        <time>2019-12-19T15:55:31Z</time>
      </trkpt>
      <trkpt lat="43.30118" lon="-1.62949">
        <ele>543</ele>
        <time>2019-12-19T15:55:36Z</time>
      </trkpt>
      <trkpt lat="43.30012" lon="-1.62928">
        <ele>526</ele>
        <time>2019-12-19T15:56:29Z</time>
      </trkpt>
      <trkpt lat="43.29989" lon="-1.62929">
        <ele>524</ele>
        <time>2019-12-19T15:56:41Z</time>
      </trkpt>
      <trkpt lat="43.29977" lon="-1.62932">
        <ele>523</ele>
        <time>2019-12-19T15:56:47Z</time>
      </trkpt>
      <trkpt lat="43.29967" lon="-1.62936">
        <ele>521</ele>
        <time>2019-12-19T15:56:52Z</time>
      </trkpt>
      <trkpt lat="43.29948" lon="-1.62949">
        <ele>517</ele>
        <time>2019-12-19T15:57:03Z</time>
      </trkpt>
      <trkpt lat="43.29905" lon="-1.62995">
        <ele>502</ele>
        <time>2019-12-19T15:57:30Z</time>
      </trkpt>
      <trkpt lat="43.29888" lon="-1.63017">
        <ele>493</ele>
        <time>2019-12-19T15:57:42Z</time>
      </trkpt>
      <trkpt lat="43.29865" lon="-1.63029">
        <ele>489</ele>
        <time>2019-12-19T15:57:54Z</time>
      </trkpt>
      <trkpt lat="43.29843" lon="-1.63029">
        <ele>488</ele>
        <time>2019-12-19T15:58:05Z</time>
      </trkpt>
      <trkpt lat="43.29832" lon="-1.63032">
        <ele>487</ele>
        <time>2019-12-19T15:58:10Z</time>
      </trkpt>
      <trkpt lat="43.2982" lon="-1.6303">
        <ele>483</ele>
        <time>2019-12-19T15:58:17Z</time>
      </trkpt>
      <trkpt lat="43.29811" lon="-1.63021">
        <ele>481</ele>
        <time>2019-12-19T15:58:22Z</time>
      </trkpt>
      <trkpt lat="43.29786" lon="-1.62988">
        <ele>476</ele>
        <time>2019-12-19T15:58:39Z</time>
      </trkpt>
      <trkpt lat="43.29777" lon="-1.62962">
        <ele>473</ele>
        <time>2019-12-19T15:58:50Z</time>
      </trkpt>
      <trkpt lat="43.29766" lon="-1.62956">
        <ele>468</ele>
        <time>2019-12-19T15:58:56Z</time>
      </trkpt>
      <trkpt lat="43.29756" lon="-1.62983">
        <ele>464</ele>
        <time>2019-12-19T15:59:07Z</time>
      </trkpt>
      <trkpt lat="43.29745" lon="-1.63043">
        <ele>452</ele>
        <time>2019-12-19T15:59:29Z</time>
      </trkpt>
      <trkpt lat="43.29743" lon="-1.63058">
        <ele>449</ele>
        <time>2019-12-19T15:59:35Z</time>
      </trkpt>
      <trkpt lat="43.29743" lon="-1.6312">
        <ele>437</ele>
        <time>2019-12-19T15:59:58Z</time>
      </trkpt>
      <trkpt lat="43.29752" lon="-1.63148">
        <ele>435</ele>
        <time>2019-12-19T16:00:09Z</time>
      </trkpt>
      <trkpt lat="43.29766" lon="-1.63173">
        <ele>430</ele>
        <time>2019-12-19T16:00:20Z</time>
      </trkpt>
      <trkpt lat="43.29785" lon="-1.6319">
        <ele>427</ele>
        <time>2019-12-19T16:00:32Z</time>
      </trkpt>
      <trkpt lat="43.29811" lon="-1.63223">
        <ele>417</ele>
        <time>2019-12-19T16:00:49Z</time>
      </trkpt>
      <trkpt lat="43.29832" lon="-1.63238">
        <ele>413</ele>
        <time>2019-12-19T16:01:01Z</time>
      </trkpt>
      <trkpt lat="43.29809" lon="-1.63242">
        <ele>410</ele>
        <time>2019-12-19T16:01:13Z</time>
      </trkpt>
      <trkpt lat="43.29779" lon="-1.63252">
        <ele>405</ele>
        <time>2019-12-19T16:01:28Z</time>
      </trkpt>
      <trkpt lat="43.2975" lon="-1.63281">
        <ele>395</ele>
        <time>2019-12-19T16:01:46Z</time>
      </trkpt>
      <trkpt lat="43.29728" lon="-1.63291">
        <ele>387</ele>
        <time>2019-12-19T16:01:58Z</time>
      </trkpt>
      <trkpt lat="43.29665" lon="-1.63329">
        <ele>368</ele>
        <time>2019-12-19T16:02:32Z</time>
      </trkpt>
      <trkpt lat="43.29644" lon="-1.63337">
        <ele>363</ele>
        <time>2019-12-19T16:02:43Z</time>
      </trkpt>
      <trkpt lat="43.29619" lon="-1.6334">
        <ele>358</ele>
        <time>2019-12-19T16:02:56Z</time>
      </trkpt>
      <trkpt lat="43.29597" lon="-1.63351">
        <ele>354</ele>
        <time>2019-12-19T16:03:07Z</time>
      </trkpt>
      <trkpt lat="43.29588" lon="-1.63359">
        <ele>352</ele>
        <time>2019-12-19T16:03:13Z</time>
      </trkpt>
      <trkpt lat="43.29576" lon="-1.63363">
        <ele>352</ele>
        <time>2019-12-19T16:03:19Z</time>
      </trkpt>
      <trkpt lat="43.2958" lon="-1.63348">
        <ele>351</ele>
        <time>2019-12-19T16:03:25Z</time>
      </trkpt>
      <trkpt lat="43.29588" lon="-1.63337">
        <ele>352</ele>
        <time>2019-12-19T16:03:30Z</time>
      </trkpt>
      <trkpt lat="43.29599" lon="-1.63311">
        <ele>354</ele>
        <time>2019-12-19T16:03:41Z</time>
      </trkpt>
      <trkpt lat="43.29605" lon="-1.63278">
        <ele>355</ele>
        <time>2019-12-19T16:03:54Z</time>
      </trkpt>
      <trkpt lat="43.29595" lon="-1.63231">
        <ele>353</ele>
        <time>2019-12-19T16:04:12Z</time>
      </trkpt>
      <trkpt lat="43.29585" lon="-1.632">
        <ele>351</ele>
        <time>2019-12-19T16:04:24Z</time>
      </trkpt>
      <trkpt lat="43.2958" lon="-1.63169">
        <ele>352</ele>
        <time>2019-12-19T16:04:35Z</time>
      </trkpt>
      <trkpt lat="43.2957" lon="-1.6314">
        <ele>352</ele>
        <time>2019-12-19T16:04:47Z</time>
      </trkpt>
      <trkpt lat="43.29563" lon="-1.63125">
        <ele>352</ele>
        <time>2019-12-19T16:04:54Z</time>
      </trkpt>
      <trkpt lat="43.29545" lon="-1.63101">
        <ele>349</ele>
        <time>2019-12-19T16:05:06Z</time>
      </trkpt>
      <trkpt lat="43.29539" lon="-1.63087">
        <ele>348</ele>
        <time>2019-12-19T16:05:12Z</time>
      </trkpt>
      <trkpt lat="43.29531" lon="-1.63056">
        <ele>346</ele>
        <time>2019-12-19T16:05:24Z</time>
      </trkpt>
      <trkpt lat="43.29524" lon="-1.6301">
        <ele>342</ele>
        <time>2019-12-19T16:05:41Z</time>
      </trkpt>
      <trkpt lat="43.29514" lon="-1.62903">
        <ele>336</ele>
        <time>2019-12-19T16:06:20Z</time>
      </trkpt>
      <trkpt lat="43.29496" lon="-1.6286">
        <ele>329</ele>
        <time>2019-12-19T16:06:39Z</time>
      </trkpt>
      <trkpt lat="43.29487" lon="-1.62818">
        <ele>330</ele>
        <time>2019-12-19T16:06:54Z</time>
      </trkpt>
      <trkpt lat="43.29476" lon="-1.62811">
        <ele>329</ele>
        <time>2019-12-19T16:07:01Z</time>
      </trkpt>
      <trkpt lat="43.29464" lon="-1.62809">
        <ele>327</ele>
        <time>2019-12-19T16:07:07Z</time>
      </trkpt>
      <trkpt lat="43.29441" lon="-1.628">
        <ele>323</ele>
        <time>2019-12-19T16:07:19Z</time>
      </trkpt>
      <trkpt lat="43.29416" lon="-1.62796">
        <ele>318</ele>
        <time>2019-12-19T16:07:31Z</time>
      </trkpt>
      <trkpt lat="43.29386" lon="-1.62776">
        <ele>319</ele>
        <time>2019-12-19T16:07:48Z</time>
      </trkpt>
      <trkpt lat="43.29376" lon="-1.6278">
        <ele>319</ele>
        <time>2019-12-19T16:07:53Z</time>
      </trkpt>
      <trkpt lat="43.29371" lon="-1.62786">
        <ele>318</ele>
        <time>2019-12-19T16:07:56Z</time>
      </trkpt>
      <trkpt lat="43.29318" lon="-1.62791">
        <ele>321</ele>
        <time>2019-12-19T16:08:23Z</time>
      </trkpt>
      <trkpt lat="43.29282" lon="-1.62822">
        <ele>332</ele>
        <time>2019-12-19T16:08:44Z</time>
      </trkpt>
      <trkpt lat="43.29264" lon="-1.62834">
        <ele>338</ele>
        <time>2019-12-19T16:08:54Z</time>
      </trkpt>
      <trkpt lat="43.29236" lon="-1.62845">
        <ele>343</ele>
        <time>2019-12-19T16:09:09Z</time>
      </trkpt>
      <trkpt lat="43.29225" lon="-1.62847">
        <ele>344</ele>
        <time>2019-12-19T16:09:14Z</time>
      </trkpt>
      <trkpt lat="43.29185" lon="-1.62847">
        <ele>351</ele>
        <time>2019-12-19T16:09:34Z</time>
      </trkpt>
      <trkpt lat="43.29129" lon="-1.6284">
        <ele>350</ele>
        <time>2019-12-19T16:10:03Z</time>
      </trkpt>
      <trkpt lat="43.29119" lon="-1.62834">
        <ele>350</ele>
        <time>2019-12-19T16:10:08Z</time>
      </trkpt>
      <trkpt lat="43.29106" lon="-1.62831">
        <ele>348</ele>
        <time>2019-12-19T16:10:15Z</time>
      </trkpt>
      <trkpt lat="43.29094" lon="-1.62833">
        <ele>347</ele>
        <time>2019-12-19T16:10:21Z</time>
      </trkpt>
      <trkpt lat="43.29072" lon="-1.6284">
        <ele>343</ele>
        <time>2019-12-19T16:10:32Z</time>
      </trkpt>
      <trkpt lat="43.29029" lon="-1.62861">
        <ele>333</ele>
        <time>2019-12-19T16:10:55Z</time>
      </trkpt>
      <trkpt lat="43.28994" lon="-1.62904">
        <ele>328</ele>
        <time>2019-12-19T16:11:18Z</time>
      </trkpt>
      <trkpt lat="43.28957" lon="-1.62936">
        <ele>326</ele>
        <time>2019-12-19T16:11:40Z</time>
      </trkpt>
      <trkpt lat="43.28936" lon="-1.62943">
        <ele>326</ele>
        <time>2019-12-19T16:11:51Z</time>
      </trkpt>
      <trkpt lat="43.28926" lon="-1.6295">
        <ele>326</ele>
        <time>2019-12-19T16:11:57Z</time>
      </trkpt>
      <trkpt lat="43.28915" lon="-1.62952">
        <ele>326</ele>
        <time>2019-12-19T16:12:02Z</time>
      </trkpt>
      <trkpt lat="43.28905" lon="-1.62946">
        <ele>325</ele>
        <time>2019-12-19T16:12:08Z</time>
      </trkpt>
      <trkpt lat="43.28874" lon="-1.62957">
        <ele>323</ele>
        <time>2019-12-19T16:12:24Z</time>
      </trkpt>
      <trkpt lat="43.28863" lon="-1.62958">
        <ele>322</ele>
        <time>2019-12-19T16:12:29Z</time>
      </trkpt>
      <trkpt lat="43.28839" lon="-1.62955">
        <ele>320</ele>
        <time>2019-12-19T16:12:41Z</time>
      </trkpt>
      <trkpt lat="43.28828" lon="-1.62951">
        <ele>318</ele>
        <time>2019-12-19T16:12:47Z</time>
      </trkpt>
      <trkpt lat="43.28777" lon="-1.62926">
        <ele>312</ele>
        <time>2019-12-19T16:13:14Z</time>
      </trkpt>
      <trkpt lat="43.28735" lon="-1.62898">
        <ele>305</ele>
        <time>2019-12-19T16:13:37Z</time>
      </trkpt>
      <trkpt lat="43.28726" lon="-1.62887">
        <ele>302</ele>
        <time>2019-12-19T16:13:43Z</time>
      </trkpt>
      <trkpt lat="43.28698" lon="-1.62838">
        <ele>292</ele>
        <time>2019-12-19T16:14:06Z</time>
      </trkpt>
      <trkpt lat="43.28698" lon="-1.62793">
        <ele>279</ele>
        <time>2019-12-19T16:14:22Z</time>
      </trkpt>
      <trkpt lat="43.28689" lon="-1.62767">
        <ele>271</ele>
        <time>2019-12-19T16:14:33Z</time>
      </trkpt>
      <trkpt lat="43.28684" lon="-1.62736">
        <ele>262</ele>
        <time>2019-12-19T16:14:45Z</time>
      </trkpt>
      <trkpt lat="43.28675" lon="-1.6271">
        <ele>255</ele>
        <time>2019-12-19T16:14:55Z</time>
      </trkpt>
      <trkpt lat="43.28661" lon="-1.62653">
        <ele>240</ele>
        <time>2019-12-19T16:15:17Z</time>
      </trkpt>
      <trkpt lat="43.28634" lon="-1.62569">
        <ele>219</ele>
        <time>2019-12-19T16:15:50Z</time>
      </trkpt>
      <trkpt lat="43.28627" lon="-1.62539">
        <ele>212</ele>
        <time>2019-12-19T16:16:02Z</time>
      </trkpt>
      <trkpt lat="43.28615" lon="-1.6251">
        <ele>204</ele>
        <time>2019-12-19T16:16:14Z</time>
      </trkpt>
      <trkpt lat="43.28593" lon="-1.62472">
        <ele>195</ele>
        <time>2019-12-19T16:16:32Z</time>
      </trkpt>
      <trkpt lat="43.28566" lon="-1.62401">
        <ele>179</ele>
        <time>2019-12-19T16:17:01Z</time>
      </trkpt>
      <trkpt lat="43.2854" lon="-1.62351">
        <ele>168</ele>
        <time>2019-12-19T16:17:23Z</time>
      </trkpt>
      <trkpt lat="43.28512" lon="-1.62213">
        <ele>156</ele>
        <time>2019-12-19T16:18:15Z</time>
      </trkpt>
      <trkpt lat="43.2851" lon="-1.62185">
        <ele>155</ele>
        <time>2019-12-19T16:18:26Z</time>
      </trkpt>
      <trkpt lat="43.28489" lon="-1.62152">
        <ele>153</ele>
        <time>2019-12-19T16:18:42Z</time>
      </trkpt>
      <trkpt lat="43.28479" lon="-1.62153">
        <ele>154</ele>
        <time>2019-12-19T16:18:47Z</time>
      </trkpt>
      <trkpt lat="43.28472" lon="-1.62142">
        <ele>155</ele>
        <time>2019-12-19T16:18:52Z</time>
      </trkpt>
      <trkpt lat="43.28471" lon="-1.62132">
        <ele>155</ele>
        <time>2019-12-19T16:18:56Z</time>
      </trkpt>
      <trkpt lat="43.28474" lon="-1.62126">
        <ele>154</ele>
        <time>2019-12-19T16:18:58Z</time>
      </trkpt>
      <trkpt lat="43.28471" lon="-1.62128">
        <ele>154</ele>
        <time>2019-12-19T16:19:00Z</time>
      </trkpt>
      <trkpt lat="43.28468" lon="-1.62125">
        <ele>155</ele>
        <time>2019-12-19T16:19:02Z</time>
      </trkpt>
      <trkpt lat="43.28471" lon="-1.62127">
        <ele>154</ele>
        <time>2019-12-19T16:19:04Z</time>
      </trkpt>
      <trkpt lat="43.2848" lon="-1.6212">
        <ele>154</ele>
        <time>2019-12-19T16:19:09Z</time>
      </trkpt>
      <trkpt lat="43.28505" lon="-1.62078">
        <ele>154</ele>
        <time>2019-12-19T16:19:28Z</time>
      </trkpt>
      <trkpt lat="43.28538" lon="-1.6204">
        <ele>164</ele>
        <time>2019-12-19T16:19:50Z</time>
      </trkpt>
      <trkpt lat="43.28549" lon="-1.62017">
        <ele>166</ele>
        <time>2019-12-19T16:20:00Z</time>
      </trkpt>
      <trkpt lat="43.28558" lon="-1.62011">
        <ele>168</ele>
        <time>2019-12-19T16:20:05Z</time>
      </trkpt>
      <trkpt lat="43.28568" lon="-1.62012">
        <ele>171</ele>
        <time>2019-12-19T16:20:10Z</time>
      </trkpt>
      <trkpt lat="43.28578" lon="-1.62036">
        <ele>176</ele>
        <time>2019-12-19T16:20:20Z</time>
      </trkpt>
      <trkpt lat="43.28585" lon="-1.62046">
        <ele>179</ele>
        <time>2019-12-19T16:20:25Z</time>
      </trkpt>
      <trkpt lat="43.28611" lon="-1.62063">
        <ele>186</ele>
        <time>2019-12-19T16:20:40Z</time>
      </trkpt>
      <trkpt lat="43.28627" lon="-1.62081">
        <ele>190</ele>
        <time>2019-12-19T16:20:50Z</time>
      </trkpt>
      <trkpt lat="43.28646" lon="-1.62093">
        <ele>194</ele>
        <time>2019-12-19T16:21:00Z</time>
      </trkpt>
      <trkpt lat="43.28677" lon="-1.6212">
        <ele>200</ele>
        <time>2019-12-19T16:21:19Z</time>
      </trkpt>
      <trkpt lat="43.28717" lon="-1.62142">
        <ele>210</ele>
        <time>2019-12-19T16:21:40Z</time>
      </trkpt>
      <trkpt lat="43.2874" lon="-1.62164">
        <ele>215</ele>
        <time>2019-12-19T16:21:54Z</time>
      </trkpt>
      <trkpt lat="43.288" lon="-1.622">
        <ele>226</ele>
        <time>2019-12-19T16:22:27Z</time>
      </trkpt>
      <trkpt lat="43.28817" lon="-1.62205">
        <ele>230</ele>
        <time>2019-12-19T16:22:36Z</time>
      </trkpt>
      <trkpt lat="43.28834" lon="-1.62198">
        <ele>237</ele>
        <time>2019-12-19T16:22:45Z</time>
      </trkpt>
      <trkpt lat="43.28863" lon="-1.62198">
        <ele>244</ele>
        <time>2019-12-19T16:22:59Z</time>
      </trkpt>
      <trkpt lat="43.28872" lon="-1.62195">
        <ele>247</ele>
        <time>2019-12-19T16:23:04Z</time>
      </trkpt>
      <trkpt lat="43.28883" lon="-1.62195">
        <ele>249</ele>
        <time>2019-12-19T16:23:09Z</time>
      </trkpt>
      <trkpt lat="43.28898" lon="-1.6218">
        <ele>254</ele>
        <time>2019-12-19T16:23:19Z</time>
      </trkpt>
      <trkpt lat="43.28908" lon="-1.62175">
        <ele>257</ele>
        <time>2019-12-19T16:23:24Z</time>
      </trkpt>
      <trkpt lat="43.28918" lon="-1.62175">
        <ele>259</ele>
        <time>2019-12-19T16:23:29Z</time>
      </trkpt>
      <trkpt lat="43.28957" lon="-1.62207">
        <ele>264</ele>
        <time>2019-12-19T16:23:52Z</time>
      </trkpt>
      <trkpt lat="43.28966" lon="-1.62212">
        <ele>266</ele>
        <time>2019-12-19T16:23:57Z</time>
      </trkpt>
      <trkpt lat="43.28982" lon="-1.62233">
        <ele>269</ele>
        <time>2019-12-19T16:24:08Z</time>
      </trkpt>
      <trkpt lat="43.29021" lon="-1.62236">
        <ele>274</ele>
        <time>2019-12-19T16:24:27Z</time>
      </trkpt>
      <trkpt lat="43.2906" lon="-1.62232">
        <ele>278</ele>
        <time>2019-12-19T16:24:47Z</time>
      </trkpt>
      <trkpt lat="43.29097" lon="-1.62209">
        <ele>282</ele>
        <time>2019-12-19T16:25:07Z</time>
      </trkpt>
      <trkpt lat="43.29106" lon="-1.622">
        <ele>283</ele>
        <time>2019-12-19T16:25:13Z</time>
      </trkpt>
      <trkpt lat="43.29112" lon="-1.62188">
        <ele>285</ele>
        <time>2019-12-19T16:25:18Z</time>
      </trkpt>
      <trkpt lat="43.2912" lon="-1.62151">
        <ele>286</ele>
        <time>2019-12-19T16:25:32Z</time>
      </trkpt>
      <trkpt lat="43.29126" lon="-1.62139">
        <ele>287</ele>
        <time>2019-12-19T16:25:37Z</time>
      </trkpt>
      <trkpt lat="43.29134" lon="-1.62131">
        <ele>288</ele>
        <time>2019-12-19T16:25:42Z</time>
      </trkpt>
      <trkpt lat="43.29142" lon="-1.6214">
        <ele>289</ele>
        <time>2019-12-19T16:25:47Z</time>
      </trkpt>
      <trkpt lat="43.29146" lon="-1.62154">
        <ele>290</ele>
        <time>2019-12-19T16:25:53Z</time>
      </trkpt>
      <trkpt lat="43.29147" lon="-1.62178">
        <ele>289</ele>
        <time>2019-12-19T16:26:02Z</time>
      </trkpt>
      <trkpt lat="43.29158" lon="-1.62204">
        <ele>288</ele>
        <time>2019-12-19T16:26:13Z</time>
      </trkpt>
      <trkpt lat="43.29166" lon="-1.62214">
        <ele>289</ele>
        <time>2019-12-19T16:26:18Z</time>
      </trkpt>
      <trkpt lat="43.29176" lon="-1.62217">
        <ele>290</ele>
        <time>2019-12-19T16:26:23Z</time>
      </trkpt>
      <trkpt lat="43.29205" lon="-1.62217">
        <ele>294</ele>
        <time>2019-12-19T16:26:38Z</time>
      </trkpt>
      <trkpt lat="43.29217" lon="-1.6222">
        <ele>295</ele>
        <time>2019-12-19T16:26:44Z</time>
      </trkpt>
      <trkpt lat="43.29227" lon="-1.62227">
        <ele>296</ele>
        <time>2019-12-19T16:26:49Z</time>
      </trkpt>
      <trkpt lat="43.29234" lon="-1.62237">
        <ele>295</ele>
        <time>2019-12-19T16:26:54Z</time>
      </trkpt>
      <trkpt lat="43.29251" lon="-1.62343">
        <ele>281</ele>
        <time>2019-12-19T16:27:34Z</time>
      </trkpt>
      <trkpt lat="43.29278" lon="-1.62395">
        <ele>279</ele>
        <time>2019-12-19T16:27:57Z</time>
      </trkpt>
      <trkpt lat="43.29295" lon="-1.62414">
        <ele>280</ele>
        <time>2019-12-19T16:28:08Z</time>
      </trkpt>
      <trkpt lat="43.29299" lon="-1.62427">
        <ele>281</ele>
        <time>2019-12-19T16:28:13Z</time>
      </trkpt>
      <trkpt lat="43.29306" lon="-1.62439">
        <ele>283</ele>
        <time>2019-12-19T16:28:19Z</time>
      </trkpt>
      <trkpt lat="43.29334" lon="-1.62452">
        <ele>291</ele>
        <time>2019-12-19T16:28:34Z</time>
      </trkpt>
      <trkpt lat="43.29333" lon="-1.62468">
        <ele>290</ele>
        <time>2019-12-19T16:28:40Z</time>
      </trkpt>
      <trkpt lat="43.29326" lon="-1.62481">
        <ele>288</ele>
        <time>2019-12-19T16:28:45Z</time>
      </trkpt>
      <trkpt lat="43.2931" lon="-1.62501">
        <ele>284</ele>
        <time>2019-12-19T16:28:56Z</time>
      </trkpt>
      <trkpt lat="43.29313" lon="-1.62533">
        <ele>288</ele>
        <time>2019-12-19T16:29:08Z</time>
      </trkpt>
      <trkpt lat="43.29307" lon="-1.62561">
        <ele>289</ele>
        <time>2019-12-19T16:29:19Z</time>
      </trkpt>
      <trkpt lat="43.29326" lon="-1.6263">
        <ele>300</ele>
        <time>2019-12-19T16:29:46Z</time>
      </trkpt>
      <trkpt lat="43.29332" lon="-1.62643">
        <ele>302</ele>
        <time>2019-12-19T16:29:51Z</time>
      </trkpt>
      <trkpt lat="43.29357" lon="-1.62671">
        <ele>312</ele>
        <time>2019-12-19T16:30:07Z</time>
      </trkpt>
      <trkpt lat="43.2937" lon="-1.62694">
        <ele>316</ele>
        <time>2019-12-19T16:30:18Z</time>
      </trkpt>
      <trkpt lat="43.29373" lon="-1.62706">
        <ele>317</ele>
        <time>2019-12-19T16:30:23Z</time>
      </trkpt>
      <trkpt lat="43.29381" lon="-1.62712">
        <ele>318</ele>
        <time>2019-12-19T16:30:27Z</time>
      </trkpt>
      <trkpt lat="43.29381" lon="-1.62723">
        <ele>318</ele>
        <time>2019-12-19T16:30:31Z</time>
      </trkpt>
      <trkpt lat="43.29375" lon="-1.6273">
        <ele>318</ele>
        <time>2019-12-19T16:30:35Z</time>
      </trkpt>
      <trkpt lat="43.29366" lon="-1.62748">
        <ele>318</ele>
        <time>2019-12-19T16:30:43Z</time>
      </trkpt>
      <trkpt lat="43.2936" lon="-1.62766">
        <ele>318</ele>
        <time>2019-12-19T16:30:50Z</time>
      </trkpt>
      <trkpt lat="43.29359" lon="-1.62776">
        <ele>318</ele>
        <time>2019-12-19T16:30:54Z</time>
      </trkpt>
      <trkpt lat="43.29364" lon="-1.62784">
        <ele>318</ele>
        <time>2019-12-19T16:30:58Z</time>
      </trkpt>
      <trkpt lat="43.29368" lon="-1.62785">
        <ele>318</ele>
        <time>2019-12-19T16:31:00Z</time>
      </trkpt>
      <trkpt lat="43.29386" lon="-1.62775">
        <ele>319</ele>
        <time>2019-12-19T16:31:09Z</time>
      </trkpt>
      <trkpt lat="43.29434" lon="-1.62741">
        <ele>327</ele>
        <time>2019-12-19T16:31:36Z</time>
      </trkpt>
      <trkpt lat="43.29441" lon="-1.62746">
        <ele>328</ele>
        <time>2019-12-19T16:31:40Z</time>
      </trkpt>
      <trkpt lat="43.29446" lon="-1.62747">
        <ele>329</ele>
        <time>2019-12-19T16:31:43Z</time>
      </trkpt>
      <trkpt lat="43.29451" lon="-1.62743">
        <ele>331</ele>
        <time>2019-12-19T16:31:46Z</time>
      </trkpt>
      <trkpt lat="43.29463" lon="-1.62747">
        <ele>334</ele>
        <time>2019-12-19T16:31:52Z</time>
      </trkpt>
      <trkpt lat="43.2947" lon="-1.62739">
        <ele>337</ele>
        <time>2019-12-19T16:31:57Z</time>
      </trkpt>
      <trkpt lat="43.29473" lon="-1.62729">
        <ele>340</ele>
        <time>2019-12-19T16:32:01Z</time>
      </trkpt>
      <trkpt lat="43.29488" lon="-1.62717">
        <ele>346</ele>
        <time>2019-12-19T16:32:09Z</time>
      </trkpt>
      <trkpt lat="43.29502" lon="-1.6271">
        <ele>352</ele>
        <time>2019-12-19T16:32:17Z</time>
      </trkpt>
      <trkpt lat="43.29508" lon="-1.62702">
        <ele>356</ele>
        <time>2019-12-19T16:32:21Z</time>
      </trkpt>
      <trkpt lat="43.29517" lon="-1.62669">
        <ele>365</ele>
        <time>2019-12-19T16:32:34Z</time>
      </trkpt>
      <trkpt lat="43.29528" lon="-1.62654">
        <ele>372</ele>
        <time>2019-12-19T16:32:41Z</time>
      </trkpt>
      <trkpt lat="43.29534" lon="-1.62649">
        <ele>375</ele>
        <time>2019-12-19T16:32:45Z</time>
      </trkpt>
      <trkpt lat="43.2955" lon="-1.62645">
        <ele>381</ele>
        <time>2019-12-19T16:32:53Z</time>
      </trkpt>
      <trkpt lat="43.29557" lon="-1.62646">
        <ele>383</ele>
        <time>2019-12-19T16:32:57Z</time>
      </trkpt>
      <trkpt lat="43.2957" lon="-1.62633">
        <ele>391</ele>
        <time>2019-12-19T16:33:05Z</time>
      </trkpt>
      <trkpt lat="43.29602" lon="-1.6261">
        <ele>409</ele>
        <time>2019-12-19T16:33:23Z</time>
      </trkpt>
      <trkpt lat="43.29611" lon="-1.62595">
        <ele>416</ele>
        <time>2019-12-19T16:33:30Z</time>
      </trkpt>
      <trkpt lat="43.29615" lon="-1.62576">
        <ele>422</ele>
        <time>2019-12-19T16:33:37Z</time>
      </trkpt>
      <trkpt lat="43.29619" lon="-1.62568">
        <ele>425</ele>
        <time>2019-12-19T16:33:41Z</time>
      </trkpt>
      <trkpt lat="43.29625" lon="-1.62569">
        <ele>427</ele>
        <time>2019-12-19T16:33:44Z</time>
      </trkpt>
      <trkpt lat="43.29632" lon="-1.62561">
        <ele>431</ele>
        <time>2019-12-19T16:33:48Z</time>
      </trkpt>
      <trkpt lat="43.29638" lon="-1.62559">
        <ele>434</ele>
        <time>2019-12-19T16:33:51Z</time>
      </trkpt>
      <trkpt lat="43.29643" lon="-1.62554">
        <ele>437</ele>
        <time>2019-12-19T16:33:54Z</time>
      </trkpt>
      <trkpt lat="43.29647" lon="-1.62545">
        <ele>441</ele>
        <time>2019-12-19T16:33:58Z</time>
      </trkpt>
      <trkpt lat="43.2966" lon="-1.62537">
        <ele>449</ele>
        <time>2019-12-19T16:34:05Z</time>
      </trkpt>
      <trkpt lat="43.29667" lon="-1.62537">
        <ele>452</ele>
        <time>2019-12-19T16:34:09Z</time>
      </trkpt>
      <trkpt lat="43.29673" lon="-1.62539">
        <ele>454</ele>
        <time>2019-12-19T16:34:12Z</time>
      </trkpt>
      <trkpt lat="43.2968" lon="-1.62547">
        <ele>454</ele>
        <time>2019-12-19T16:34:16Z</time>
      </trkpt>
      <trkpt lat="43.29692" lon="-1.62516">
        <ele>465</ele>
        <time>2019-12-19T16:34:29Z</time>
      </trkpt>
      <trkpt lat="43.29707" lon="-1.62527">
        <ele>467</ele>
        <time>2019-12-19T16:34:38Z</time>
      </trkpt>
      <trkpt lat="43.29717" lon="-1.62528">
        <ele>470</ele>
        <time>2019-12-19T16:34:43Z</time>
      </trkpt>
      <trkpt lat="43.29723" lon="-1.62524">
        <ele>473</ele>
        <time>2019-12-19T16:34:46Z</time>
      </trkpt>
      <trkpt lat="43.29726" lon="-1.62517">
        <ele>476</ele>
        <time>2019-12-19T16:34:49Z</time>
      </trkpt>
      <trkpt lat="43.29732" lon="-1.62512">
        <ele>479</ele>
        <time>2019-12-19T16:34:53Z</time>
      </trkpt>
      <trkpt lat="43.2974" lon="-1.6251">
        <ele>483</ele>
        <time>2019-12-19T16:34:57Z</time>
      </trkpt>
      <trkpt lat="43.29745" lon="-1.62493">
        <ele>488</ele>
        <time>2019-12-19T16:35:03Z</time>
      </trkpt>
      <trkpt lat="43.2975" lon="-1.62488">
        <ele>491</ele>
        <time>2019-12-19T16:35:06Z</time>
      </trkpt>
      <trkpt lat="43.29767" lon="-1.6245">
        <ele>503</ele>
        <time>2019-12-19T16:35:23Z</time>
      </trkpt>
      <trkpt lat="43.298" lon="-1.62404">
        <ele>523</ele>
        <time>2019-12-19T16:35:46Z</time>
      </trkpt>
      <trkpt lat="43.29807" lon="-1.62391">
        <ele>527</ele>
        <time>2019-12-19T16:35:52Z</time>
      </trkpt>
      <trkpt lat="43.29818" lon="-1.6238">
        <ele>532</ele>
        <time>2019-12-19T16:35:59Z</time>
      </trkpt>
      <trkpt lat="43.29824" lon="-1.62364">
        <ele>537</ele>
        <time>2019-12-19T16:36:05Z</time>
      </trkpt>
      <trkpt lat="43.2986" lon="-1.62321">
        <ele>554</ele>
        <time>2019-12-19T16:36:29Z</time>
      </trkpt>
      <trkpt lat="43.29886" lon="-1.62296">
        <ele>564</ele>
        <time>2019-12-19T16:36:45Z</time>
      </trkpt>
      <trkpt lat="43.29901" lon="-1.62278">
        <ele>571</ele>
        <time>2019-12-19T16:36:55Z</time>
      </trkpt>
      <trkpt lat="43.29923" lon="-1.6226">
        <ele>580</ele>
        <time>2019-12-19T16:37:08Z</time>
      </trkpt>
      <trkpt lat="43.29937" lon="-1.62242">
        <ele>586</ele>
        <time>2019-12-19T16:37:18Z</time>
      </trkpt>
      <trkpt lat="43.29946" lon="-1.62237">
        <ele>588</ele>
        <time>2019-12-19T16:37:22Z</time>
      </trkpt>
      <trkpt lat="43.29989" lon="-1.62238">
        <ele>599</ele>
        <time>2019-12-19T16:37:44Z</time>
      </trkpt>
      <trkpt lat="43.30004" lon="-1.62232">
        <ele>602</ele>
        <time>2019-12-19T16:37:52Z</time>
      </trkpt>
      <trkpt lat="43.30018" lon="-1.62217">
        <ele>603</ele>
        <time>2019-12-19T16:38:01Z</time>
      </trkpt>
      <trkpt lat="43.30033" lon="-1.62184">
        <ele>603</ele>
        <time>2019-12-19T16:38:15Z</time>
      </trkpt>
      <trkpt lat="43.30036" lon="-1.62169">
        <ele>602</ele>
        <time>2019-12-19T16:38:20Z</time>
      </trkpt>
      <trkpt lat="43.30031" lon="-1.62116">
        <ele>594</ele>
        <time>2019-12-19T16:38:40Z</time>
      </trkpt>
      <trkpt lat="43.30043" lon="-1.62059">
        <ele>583</ele>
        <time>2019-12-19T16:39:02Z</time>
      </trkpt>
      <trkpt lat="43.30039" lon="-1.62046">
        <ele>581</ele>
        <time>2019-12-19T16:39:07Z</time>
      </trkpt>
      <trkpt lat="43.30019" lon="-1.62027">
        <ele>579</ele>
        <time>2019-12-19T16:39:19Z</time>
      </trkpt>
      <trkpt lat="43.30006" lon="-1.62002">
        <ele>574</ele>
        <time>2019-12-19T16:39:30Z</time>
      </trkpt>
      <trkpt lat="43.29989" lon="-1.61978">
        <ele>570</ele>
        <time>2019-12-19T16:39:42Z</time>
      </trkpt>
      <trkpt lat="43.29979" lon="-1.61969">
        <ele>568</ele>
        <time>2019-12-19T16:39:48Z</time>
      </trkpt>
      <trkpt lat="43.29968" lon="-1.61962">
        <ele>566</ele>
        <time>2019-12-19T16:39:54Z</time>
      </trkpt>
      <trkpt lat="43.29927" lon="-1.61945">
        <ele>561</ele>
        <time>2019-12-19T16:40:16Z</time>
      </trkpt>
      <trkpt lat="43.29869" lon="-1.61915">
        <ele>551</ele>
        <time>2019-12-19T16:40:47Z</time>
      </trkpt>
      <trkpt lat="43.29849" lon="-1.61907">
        <ele>548</ele>
        <time>2019-12-19T16:40:57Z</time>
      </trkpt>
      <trkpt lat="43.29814" lon="-1.61866">
        <ele>543</ele>
        <time>2019-12-19T16:41:20Z</time>
      </trkpt>
      <trkpt lat="43.29798" lon="-1.6184">
        <ele>541</ele>
        <time>2019-12-19T16:41:33Z</time>
      </trkpt>
      <trkpt lat="43.29778" lon="-1.61821">
        <ele>539</ele>
        <time>2019-12-19T16:41:45Z</time>
      </trkpt>
      <trkpt lat="43.29732" lon="-1.61765">
        <ele>530</ele>
        <time>2019-12-19T16:42:16Z</time>
      </trkpt>
      <trkpt lat="43.29719" lon="-1.61738">
        <ele>525</ele>
        <time>2019-12-19T16:42:27Z</time>
      </trkpt>
      <trkpt lat="43.29709" lon="-1.61728">
        <ele>522</ele>
        <time>2019-12-19T16:42:33Z</time>
      </trkpt>
      <trkpt lat="43.29696" lon="-1.61702">
        <ele>518</ele>
        <time>2019-12-19T16:42:45Z</time>
      </trkpt>
      <trkpt lat="43.29681" lon="-1.61623">
        <ele>514</ele>
        <time>2019-12-19T16:43:15Z</time>
      </trkpt>
      <trkpt lat="43.29662" lon="-1.61573">
        <ele>515</ele>
        <time>2019-12-19T16:43:35Z</time>
      </trkpt>
      <trkpt lat="43.29644" lon="-1.61505">
        <ele>512</ele>
        <time>2019-12-19T16:44:02Z</time>
      </trkpt>
      <trkpt lat="43.29641" lon="-1.61476">
        <ele>513</ele>
        <time>2019-12-19T16:44:12Z</time>
      </trkpt>
      <trkpt lat="43.29644" lon="-1.61447">
        <ele>515</ele>
        <time>2019-12-19T16:44:23Z</time>
      </trkpt>
      <trkpt lat="43.29643" lon="-1.61435">
        <ele>515</ele>
        <time>2019-12-19T16:44:27Z</time>
      </trkpt>
      <trkpt lat="43.29639" lon="-1.61422">
        <ele>516</ele>
        <time>2019-12-19T16:44:32Z</time>
      </trkpt>
      <trkpt lat="43.29622" lon="-1.61395">
        <ele>518</ele>
        <time>2019-12-19T16:44:45Z</time>
      </trkpt>
      <trkpt lat="43.29623" lon="-1.61353">
        <ele>519</ele>
        <time>2019-12-19T16:45:01Z</time>
      </trkpt>
      <trkpt lat="43.29619" lon="-1.61342">
        <ele>520</ele>
        <time>2019-12-19T16:45:05Z</time>
      </trkpt>
      <trkpt lat="43.29621" lon="-1.61328">
        <ele>520</ele>
        <time>2019-12-19T16:45:10Z</time>
      </trkpt>
      <trkpt lat="43.29614" lon="-1.61291">
        <ele>522</ele>
        <time>2019-12-19T16:45:24Z</time>
      </trkpt>
      <trkpt lat="43.29619" lon="-1.61252">
        <ele>520</ele>
        <time>2019-12-19T16:45:39Z</time>
      </trkpt>
      <trkpt lat="43.29613" lon="-1.61236">
        <ele>518</ele>
        <time>2019-12-19T16:45:45Z</time>
      </trkpt>
      <trkpt lat="43.29613" lon="-1.61227">
        <ele>516</ele>
        <time>2019-12-19T16:45:49Z</time>
      </trkpt>
      <trkpt lat="43.29609" lon="-1.61215">
        <ele>515</ele>
        <time>2019-12-19T16:45:53Z</time>
      </trkpt>
      <trkpt lat="43.29599" lon="-1.61207">
        <ele>516</ele>
        <time>2019-12-19T16:45:59Z</time>
      </trkpt>
      <trkpt lat="43.29603" lon="-1.61167">
        <ele>505</ele>
        <time>2019-12-19T16:46:14Z</time>
      </trkpt>
      <trkpt lat="43.29602" lon="-1.61152">
        <ele>501</ele>
        <time>2019-12-19T16:46:19Z</time>
      </trkpt>
      <trkpt lat="43.29585" lon="-1.61115">
        <ele>494</ele>
        <time>2019-12-19T16:46:35Z</time>
      </trkpt>
      <trkpt lat="43.29585" lon="-1.61086">
        <ele>485</ele>
        <time>2019-12-19T16:46:46Z</time>
      </trkpt>
      <trkpt lat="43.29581" lon="-1.61038">
        <ele>474</ele>
        <time>2019-12-19T16:47:04Z</time>
      </trkpt>
      <trkpt lat="43.29576" lon="-1.61025">
        <ele>470</ele>
        <time>2019-12-19T16:47:09Z</time>
      </trkpt>
      <trkpt lat="43.29568" lon="-1.61014">
        <ele>465</ele>
        <time>2019-12-19T16:47:15Z</time>
      </trkpt>
      <trkpt lat="43.29569" lon="-1.60923">
        <ele>443</ele>
        <time>2019-12-19T16:47:48Z</time>
      </trkpt>
      <trkpt lat="43.29578" lon="-1.6088">
        <ele>439</ele>
        <time>2019-12-19T16:48:04Z</time>
      </trkpt>
      <trkpt lat="43.29584" lon="-1.60864">
        <ele>438</ele>
        <time>2019-12-19T16:48:11Z</time>
      </trkpt>
      <trkpt lat="43.29598" lon="-1.60836">
        <ele>430</ele>
        <time>2019-12-19T16:48:23Z</time>
      </trkpt>
      <trkpt lat="43.29612" lon="-1.60815">
        <ele>423</ele>
        <time>2019-12-19T16:48:33Z</time>
      </trkpt>
      <trkpt lat="43.2963" lon="-1.60794">
        <ele>415</ele>
        <time>2019-12-19T16:48:45Z</time>
      </trkpt>
      <trkpt lat="43.29648" lon="-1.60779">
        <ele>408</ele>
        <time>2019-12-19T16:48:56Z</time>
      </trkpt>
      <trkpt lat="43.29676" lon="-1.60766">
        <ele>400</ele>
        <time>2019-12-19T16:49:10Z</time>
      </trkpt>
      <trkpt lat="43.29684" lon="-1.60759">
        <ele>397</ele>
        <time>2019-12-19T16:49:15Z</time>
      </trkpt>
      <trkpt lat="43.2969" lon="-1.60747">
        <ele>393</ele>
        <time>2019-12-19T16:49:20Z</time>
      </trkpt>
      <trkpt lat="43.29683" lon="-1.60736">
        <ele>392</ele>
        <time>2019-12-19T16:49:26Z</time>
      </trkpt>
      <trkpt lat="43.29649" lon="-1.60703">
        <ele>390</ele>
        <time>2019-12-19T16:49:47Z</time>
      </trkpt>
      <trkpt lat="43.29643" lon="-1.60691">
        <ele>387</ele>
        <time>2019-12-19T16:49:52Z</time>
      </trkpt>
      <trkpt lat="43.2963" lon="-1.6068">
        <ele>385</ele>
        <time>2019-12-19T16:50:00Z</time>
      </trkpt>
      <trkpt lat="43.29634" lon="-1.60669">
        <ele>381</ele>
        <time>2019-12-19T16:50:04Z</time>
      </trkpt>
      <trkpt lat="43.29626" lon="-1.60664">
        <ele>380</ele>
        <time>2019-12-19T16:50:08Z</time>
      </trkpt>
      <trkpt lat="43.29622" lon="-1.60671">
        <ele>383</ele>
        <time>2019-12-19T16:50:12Z</time>
      </trkpt>
      <trkpt lat="43.2961" lon="-1.60669">
        <ele>383</ele>
        <time>2019-12-19T16:50:18Z</time>
      </trkpt>
      <trkpt lat="43.29601" lon="-1.60664">
        <ele>382</ele>
        <time>2019-12-19T16:50:23Z</time>
      </trkpt>
      <trkpt lat="43.29585" lon="-1.60646">
        <ele>377</ele>
        <time>2019-12-19T16:50:33Z</time>
      </trkpt>
      <trkpt lat="43.29568" lon="-1.60638">
        <ele>374</ele>
        <time>2019-12-19T16:50:42Z</time>
      </trkpt>
      <trkpt lat="43.29557" lon="-1.60635">
        <ele>373</ele>
        <time>2019-12-19T16:50:48Z</time>
      </trkpt>
      <trkpt lat="43.29535" lon="-1.60637">
        <ele>373</ele>
        <time>2019-12-19T16:50:59Z</time>
      </trkpt>
      <trkpt lat="43.29514" lon="-1.60632">
        <ele>371</ele>
        <time>2019-12-19T16:51:09Z</time>
      </trkpt>
      <trkpt lat="43.29498" lon="-1.60611">
        <ele>365</ele>
        <time>2019-12-19T16:51:20Z</time>
      </trkpt>
      <trkpt lat="43.29478" lon="-1.60595">
        <ele>359</ele>
        <time>2019-12-19T16:51:32Z</time>
      </trkpt>
      <trkpt lat="43.29466" lon="-1.60572">
        <ele>354</ele>
        <time>2019-12-19T16:51:42Z</time>
      </trkpt>
      <trkpt lat="43.29463" lon="-1.60556">
        <ele>352</ele>
        <time>2019-12-19T16:51:48Z</time>
      </trkpt>
      <trkpt lat="43.29473" lon="-1.60527">
        <ele>350</ele>
        <time>2019-12-19T16:52:00Z</time>
      </trkpt>
      <trkpt lat="43.29473" lon="-1.6051">
        <ele>348</ele>
        <time>2019-12-19T16:52:06Z</time>
      </trkpt>
      <trkpt lat="43.29463" lon="-1.60479">
        <ele>349</ele>
        <time>2019-12-19T16:52:18Z</time>
      </trkpt>
      <trkpt lat="43.2946" lon="-1.60447">
        <ele>351</ele>
        <time>2019-12-19T16:52:30Z</time>
      </trkpt>
      <trkpt lat="43.29455" lon="-1.60431">
        <ele>352</ele>
        <time>2019-12-19T16:52:37Z</time>
      </trkpt>
      <trkpt lat="43.29452" lon="-1.60406">
        <ele>355</ele>
        <time>2019-12-19T16:52:46Z</time>
      </trkpt>
      <trkpt lat="43.29421" lon="-1.60325">
        <ele>369</ele>
        <time>2019-12-19T16:53:19Z</time>
      </trkpt>
      <trkpt lat="43.29431" lon="-1.60263">
        <ele>380</ele>
        <time>2019-12-19T16:53:42Z</time>
      </trkpt>
      <trkpt lat="43.29435" lon="-1.60257">
        <ele>381</ele>
        <time>2019-12-19T16:53:45Z</time>
      </trkpt>
      <trkpt lat="43.2944" lon="-1.6022">
        <ele>380</ele>
        <time>2019-12-19T16:53:59Z</time>
      </trkpt>
      <trkpt lat="43.29443" lon="-1.60214">
        <ele>380</ele>
        <time>2019-12-19T16:54:02Z</time>
      </trkpt>
      <trkpt lat="43.29448" lon="-1.60212">
        <ele>379</ele>
        <time>2019-12-19T16:54:04Z</time>
      </trkpt>
      <trkpt lat="43.29462" lon="-1.60224">
        <ele>377</ele>
        <time>2019-12-19T16:54:12Z</time>
      </trkpt>
      <trkpt lat="43.29467" lon="-1.6022">
        <ele>376</ele>
        <time>2019-12-19T16:54:15Z</time>
      </trkpt>
      <trkpt lat="43.29469" lon="-1.60186">
        <ele>373</ele>
        <time>2019-12-19T16:54:28Z</time>
      </trkpt>
      <trkpt lat="43.2948" lon="-1.60169">
        <ele>368</ele>
        <time>2019-12-19T16:54:36Z</time>
      </trkpt>
      <trkpt lat="43.29502" lon="-1.60151">
        <ele>359</ele>
        <time>2019-12-19T16:54:49Z</time>
      </trkpt>
      <trkpt lat="43.29547" lon="-1.60098">
        <ele>331</ele>
        <time>2019-12-19T16:55:19Z</time>
      </trkpt>
      <trkpt lat="43.29557" lon="-1.60073">
        <ele>324</ele>
        <time>2019-12-19T16:55:29Z</time>
      </trkpt>
      <trkpt lat="43.29576" lon="-1.60058">
        <ele>315</ele>
        <time>2019-12-19T16:55:40Z</time>
      </trkpt>
      <trkpt lat="43.29597" lon="-1.60047">
        <ele>303</ele>
        <time>2019-12-19T16:55:51Z</time>
      </trkpt>
      <trkpt lat="43.29605" lon="-1.6004">
        <ele>297</ele>
        <time>2019-12-19T16:55:56Z</time>
      </trkpt>
      <trkpt lat="43.29606" lon="-1.60065">
        <ele>299</ele>
        <time>2019-12-19T16:56:05Z</time>
      </trkpt>
      <trkpt lat="43.29616" lon="-1.60108">
        <ele>296</ele>
        <time>2019-12-19T16:56:21Z</time>
      </trkpt>
      <trkpt lat="43.29619" lon="-1.60147">
        <ele>296</ele>
        <time>2019-12-19T16:56:36Z</time>
      </trkpt>
      <trkpt lat="43.29629" lon="-1.60194">
        <ele>293</ele>
        <time>2019-12-19T16:56:54Z</time>
      </trkpt>
      <trkpt lat="43.29628" lon="-1.60211">
        <ele>295</ele>
        <time>2019-12-19T16:57:00Z</time>
      </trkpt>
      <trkpt lat="43.2963" lon="-1.60226">
        <ele>295</ele>
        <time>2019-12-19T16:57:05Z</time>
      </trkpt>
      <trkpt lat="43.29652" lon="-1.60297">
        <ele>289</ele>
        <time>2019-12-19T16:57:33Z</time>
      </trkpt>
      <trkpt lat="43.2966" lon="-1.60341">
        <ele>291</ele>
        <time>2019-12-19T16:57:50Z</time>
      </trkpt>
      <trkpt lat="43.29673" lon="-1.60379">
        <ele>290</ele>
        <time>2019-12-19T16:58:05Z</time>
      </trkpt>
      <trkpt lat="43.29677" lon="-1.60411">
        <ele>293</ele>
        <time>2019-12-19T16:58:17Z</time>
      </trkpt>
      <trkpt lat="43.29674" lon="-1.60439">
        <ele>299</ele>
        <time>2019-12-19T16:58:27Z</time>
      </trkpt>
      <trkpt lat="43.29678" lon="-1.60453">
        <ele>301</ele>
        <time>2019-12-19T16:58:33Z</time>
      </trkpt>
      <trkpt lat="43.29695" lon="-1.60471">
        <ele>303</ele>
        <time>2019-12-19T16:58:44Z</time>
      </trkpt>
      <trkpt lat="43.29704" lon="-1.60476">
        <ele>303</ele>
        <time>2019-12-19T16:58:48Z</time>
      </trkpt>
      <trkpt lat="43.29714" lon="-1.60478">
        <ele>303</ele>
        <time>2019-12-19T16:58:53Z</time>
      </trkpt>
      <trkpt lat="43.2974" lon="-1.605">
        <ele>304</ele>
        <time>2019-12-19T16:59:09Z</time>
      </trkpt>
      <trkpt lat="43.2978" lon="-1.60521">
        <ele>312</ele>
        <time>2019-12-19T16:59:30Z</time>
      </trkpt>
      <trkpt lat="43.2979" lon="-1.60519">
        <ele>312</ele>
        <time>2019-12-19T16:59:35Z</time>
      </trkpt>
      <trkpt lat="43.29787" lon="-1.60507">
        <ele>309</ele>
        <time>2019-12-19T16:59:40Z</time>
      </trkpt>
      <trkpt lat="43.29777" lon="-1.605">
        <ele>307</ele>
        <time>2019-12-19T16:59:46Z</time>
      </trkpt>
      <trkpt lat="43.29771" lon="-1.60487">
        <ele>304</ele>
        <time>2019-12-19T16:59:51Z</time>
      </trkpt>
      <trkpt lat="43.2977" lon="-1.60472">
        <ele>301</ele>
        <time>2019-12-19T16:59:57Z</time>
      </trkpt>
      <trkpt lat="43.2979" lon="-1.60372">
        <ele>287</ele>
        <time>2019-12-19T17:00:34Z</time>
      </trkpt>
      <trkpt lat="43.29802" lon="-1.60344">
        <ele>285</ele>
        <time>2019-12-19T17:00:46Z</time>
      </trkpt>
      <trkpt lat="43.29825" lon="-1.60273">
        <ele>274</ele>
        <time>2019-12-19T17:01:15Z</time>
      </trkpt>
      <trkpt lat="43.29851" lon="-1.60225">
        <ele>263</ele>
        <time>2019-12-19T17:01:36Z</time>
      </trkpt>
      <trkpt lat="43.2986" lon="-1.60214">
        <ele>260</ele>
        <time>2019-12-19T17:01:42Z</time>
      </trkpt>
      <trkpt lat="43.29871" lon="-1.60185">
        <ele>254</ele>
        <time>2019-12-19T17:01:54Z</time>
      </trkpt>
      <trkpt lat="43.29874" lon="-1.6017">
        <ele>251</ele>
        <time>2019-12-19T17:02:00Z</time>
      </trkpt>
      <trkpt lat="43.29881" lon="-1.6016">
        <ele>249</ele>
        <time>2019-12-19T17:02:05Z</time>
      </trkpt>
      <trkpt lat="43.299" lon="-1.60147">
        <ele>247</ele>
        <time>2019-12-19T17:02:16Z</time>
      </trkpt>
      <trkpt lat="43.29894" lon="-1.60139">
        <ele>245</ele>
        <time>2019-12-19T17:02:20Z</time>
      </trkpt>
      <trkpt lat="43.29886" lon="-1.60104">
        <ele>236</ele>
        <time>2019-12-19T17:02:33Z</time>
      </trkpt>
      <trkpt lat="43.29876" lon="-1.60083">
        <ele>230</ele>
        <time>2019-12-19T17:02:42Z</time>
      </trkpt>
      <trkpt lat="43.2988" lon="-1.60069">
        <ele>227</ele>
        <time>2019-12-19T17:02:48Z</time>
      </trkpt>
      <trkpt lat="43.29894" lon="-1.60045">
        <ele>223</ele>
        <time>2019-12-19T17:02:59Z</time>
      </trkpt>
      <trkpt lat="43.29898" lon="-1.60018">
        <ele>218</ele>
        <time>2019-12-19T17:03:09Z</time>
      </trkpt>
      <trkpt lat="43.29924" lon="-1.59959">
        <ele>205</ele>
        <time>2019-12-19T17:03:34Z</time>
      </trkpt>
      <trkpt lat="43.29934" lon="-1.59903">
        <ele>192</ele>
        <time>2019-12-19T17:03:55Z</time>
      </trkpt>
      <trkpt lat="43.29942" lon="-1.59877">
        <ele>188</ele>
        <time>2019-12-19T17:04:05Z</time>
      </trkpt>
      <trkpt lat="43.29955" lon="-1.59852">
        <ele>185</ele>
        <time>2019-12-19T17:04:17Z</time>
      </trkpt>
      <trkpt lat="43.29981" lon="-1.59785">
        <ele>183</ele>
        <time>2019-12-19T17:04:44Z</time>
      </trkpt>
      <trkpt lat="43.29994" lon="-1.59731">
        <ele>181</ele>
        <time>2019-12-19T17:05:05Z</time>
      </trkpt>
      <trkpt lat="43.3001" lon="-1.59692">
        <ele>174</ele>
        <time>2019-12-19T17:05:21Z</time>
      </trkpt>
      <trkpt lat="43.30019" lon="-1.59684">
        <ele>172</ele>
        <time>2019-12-19T17:05:27Z</time>
      </trkpt>
      <trkpt lat="43.30029" lon="-1.59681">
        <ele>170</ele>
        <time>2019-12-19T17:05:32Z</time>
      </trkpt>
      <trkpt lat="43.30076" lon="-1.59687">
        <ele>167</ele>
        <time>2019-12-19T17:05:55Z</time>
      </trkpt>
      <trkpt lat="43.30133" lon="-1.59704">
        <ele>158</ele>
        <time>2019-12-19T17:06:25Z</time>
      </trkpt>
      <trkpt lat="43.30145" lon="-1.59697">
        <ele>153</ele>
        <time>2019-12-19T17:06:31Z</time>
      </trkpt>
      <trkpt lat="43.30149" lon="-1.59683">
        <ele>150</ele>
        <time>2019-12-19T17:06:37Z</time>
      </trkpt>
      <trkpt lat="43.30159" lon="-1.59679">
        <ele>147</ele>
        <time>2019-12-19T17:06:42Z</time>
      </trkpt>
      <trkpt lat="43.3017" lon="-1.59678">
        <ele>144</ele>
        <time>2019-12-19T17:06:47Z</time>
      </trkpt>
      <trkpt lat="43.3018" lon="-1.59671">
        <ele>142</ele>
        <time>2019-12-19T17:06:53Z</time>
      </trkpt>
      <trkpt lat="43.30187" lon="-1.59659">
        <ele>139</ele>
        <time>2019-12-19T17:06:58Z</time>
      </trkpt>
      <trkpt lat="43.30179" lon="-1.59631">
        <ele>137</ele>
        <time>2019-12-19T17:07:09Z</time>
      </trkpt>
      <trkpt lat="43.30162" lon="-1.59595">
        <ele>135</ele>
        <time>2019-12-19T17:07:25Z</time>
      </trkpt>
      <trkpt lat="43.30157" lon="-1.59578">
        <ele>133</ele>
        <time>2019-12-19T17:07:32Z</time>
      </trkpt>
      <trkpt lat="43.30159" lon="-1.59565">
        <ele>132</ele>
        <time>2019-12-19T17:07:37Z</time>
      </trkpt>
      <trkpt lat="43.30193" lon="-1.59562">
        <ele>128</ele>
        <time>2019-12-19T17:07:54Z</time>
      </trkpt>
      <trkpt lat="43.30227" lon="-1.59554">
        <ele>124</ele>
        <time>2019-12-19T17:08:11Z</time>
      </trkpt>
      <trkpt lat="43.30272" lon="-1.5955">
        <ele>119</ele>
        <time>2019-12-19T17:08:33Z</time>
      </trkpt>
      <trkpt lat="43.30294" lon="-1.59543">
        <ele>116</ele>
        <time>2019-12-19T17:08:45Z</time>
      </trkpt>
      <trkpt lat="43.30337" lon="-1.59513">
        <ele>109</ele>
        <time>2019-12-19T17:09:09Z</time>
      </trkpt>
      <trkpt lat="43.30378" lon="-1.5946">
        <ele>107</ele>
        <time>2019-12-19T17:09:37Z</time>
      </trkpt>
      <trkpt lat="43.30408" lon="-1.59441">
        <ele>108</ele>
        <time>2019-12-19T17:09:54Z</time>
      </trkpt>
      <trkpt lat="43.30419" lon="-1.5944">
        <ele>108</ele>
        <time>2019-12-19T17:09:59Z</time>
      </trkpt>
      <trkpt lat="43.30438" lon="-1.59457">
        <ele>107</ele>
        <time>2019-12-19T17:10:10Z</time>
      </trkpt>
      <trkpt lat="43.30464" lon="-1.59462">
        <ele>106</ele>
        <time>2019-12-19T17:10:24Z</time>
      </trkpt>
      <trkpt lat="43.30522" lon="-1.5948">
        <ele>109</ele>
        <time>2019-12-19T17:10:53Z</time>
      </trkpt>
      <trkpt lat="43.30539" lon="-1.595">
        <ele>113</ele>
        <time>2019-12-19T17:11:05Z</time>
      </trkpt>
      <trkpt lat="43.30549" lon="-1.59503">
        <ele>115</ele>
        <time>2019-12-19T17:11:10Z</time>
      </trkpt>
      <trkpt lat="43.30558" lon="-1.59494">
        <ele>115</ele>
        <time>2019-12-19T17:11:15Z</time>
      </trkpt>
      <trkpt lat="43.30587" lon="-1.59475">
        <ele>117</ele>
        <time>2019-12-19T17:11:31Z</time>
      </trkpt>
      <trkpt lat="43.30599" lon="-1.59452">
        <ele>118</ele>
        <time>2019-12-19T17:11:42Z</time>
      </trkpt>
      <trkpt lat="43.30614" lon="-1.59431">
        <ele>120</ele>
        <time>2019-12-19T17:11:52Z</time>
      </trkpt>
      <trkpt lat="43.30638" lon="-1.59406">
        <ele>123</ele>
        <time>2019-12-19T17:12:07Z</time>
      </trkpt>
      <trkpt lat="43.30656" lon="-1.59392">
        <ele>126</ele>
        <time>2019-12-19T17:12:18Z</time>
      </trkpt>
      <trkpt lat="43.30685" lon="-1.59385">
        <ele>128</ele>
        <time>2019-12-19T17:12:32Z</time>
      </trkpt>
      <trkpt lat="43.30694" lon="-1.59386">
        <ele>128</ele>
        <time>2019-12-19T17:12:37Z</time>
      </trkpt>
      <trkpt lat="43.30702" lon="-1.59392">
        <ele>129</ele>
        <time>2019-12-19T17:12:42Z</time>
      </trkpt>
      <trkpt lat="43.30715" lon="-1.59417">
        <ele>133</ele>
        <time>2019-12-19T17:12:53Z</time>
      </trkpt>
      <trkpt lat="43.3072" lon="-1.59446">
        <ele>137</ele>
        <time>2019-12-19T17:13:04Z</time>
      </trkpt>
      <trkpt lat="43.30728" lon="-1.59457">
        <ele>138</ele>
        <time>2019-12-19T17:13:09Z</time>
      </trkpt>
      <trkpt lat="43.30739" lon="-1.59457">
        <ele>139</ele>
        <time>2019-12-19T17:13:15Z</time>
      </trkpt>
      <trkpt lat="43.3075" lon="-1.59453">
        <ele>139</ele>
        <time>2019-12-19T17:13:20Z</time>
      </trkpt>
      <trkpt lat="43.30774" lon="-1.5944">
        <ele>140</ele>
        <time>2019-12-19T17:13:33Z</time>
      </trkpt>
      <trkpt lat="43.30804" lon="-1.59417">
        <ele>138</ele>
        <time>2019-12-19T17:13:51Z</time>
      </trkpt>
      <trkpt lat="43.30833" lon="-1.59376">
        <ele>130</ele>
        <time>2019-12-19T17:14:11Z</time>
      </trkpt>
      <trkpt lat="43.30863" lon="-1.59315">
        <ele>120</ele>
        <time>2019-12-19T17:14:38Z</time>
      </trkpt>
      <trkpt lat="43.30889" lon="-1.59276">
        <ele>115</ele>
        <time>2019-12-19T17:14:57Z</time>
      </trkpt>
      <trkpt lat="43.30891" lon="-1.59262">
        <ele>112</ele>
        <time>2019-12-19T17:15:03Z</time>
      </trkpt>
      <trkpt lat="43.30888" lon="-1.59246">
        <ele>109</ele>
        <time>2019-12-19T17:15:09Z</time>
      </trkpt>
      <trkpt lat="43.30884" lon="-1.59232">
        <ele>107</ele>
        <time>2019-12-19T17:15:14Z</time>
      </trkpt>
      <trkpt lat="43.30865" lon="-1.59196">
        <ele>101</ele>
        <time>2019-12-19T17:15:30Z</time>
      </trkpt>
      <trkpt lat="43.30849" lon="-1.59185">
        <ele>98</ele>
        <time>2019-12-19T17:15:39Z</time>
      </trkpt>
      <trkpt lat="43.30817" lon="-1.59177">
        <ele>95</ele>
        <time>2019-12-19T17:15:56Z</time>
      </trkpt>
      <trkpt lat="43.30804" lon="-1.59156">
        <ele>93</ele>
        <time>2019-12-19T17:16:06Z</time>
      </trkpt>
      <trkpt lat="43.30793" lon="-1.59146">
        <ele>91</ele>
        <time>2019-12-19T17:16:12Z</time>
      </trkpt>
      <trkpt lat="43.30761" lon="-1.59129">
        <ele>88</ele>
        <time>2019-12-19T17:16:29Z</time>
      </trkpt>
      <trkpt lat="43.30747" lon="-1.59115">
        <ele>85</ele>
        <time>2019-12-19T17:16:38Z</time>
      </trkpt>
      <trkpt lat="43.30742" lon="-1.59106">
        <ele>84</ele>
        <time>2019-12-19T17:16:42Z</time>
      </trkpt>
      <trkpt lat="43.30738" lon="-1.59091">
        <ele>83</ele>
        <time>2019-12-19T17:16:48Z</time>
      </trkpt>
      <trkpt lat="43.30733" lon="-1.59043">
        <ele>81</ele>
        <time>2019-12-19T17:17:06Z</time>
      </trkpt>
      <trkpt lat="43.30729" lon="-1.59032">
        <ele>81</ele>
        <time>2019-12-19T17:17:10Z</time>
      </trkpt>
      <trkpt lat="43.30713" lon="-1.59016">
        <ele>80</ele>
        <time>2019-12-19T17:17:20Z</time>
      </trkpt>
      <trkpt lat="43.307" lon="-1.58998">
        <ele>80</ele>
        <time>2019-12-19T17:17:29Z</time>
      </trkpt>
      <trkpt lat="43.30686" lon="-1.58964">
        <ele>80</ele>
        <time>2019-12-19T17:17:43Z</time>
      </trkpt>
      <trkpt lat="43.30673" lon="-1.58911">
        <ele>81</ele>
        <time>2019-12-19T17:18:04Z</time>
      </trkpt>
      <trkpt lat="43.30659" lon="-1.58887">
        <ele>80</ele>
        <time>2019-12-19T17:18:15Z</time>
      </trkpt>
      <trkpt lat="43.30657" lon="-1.58876">
        <ele>80</ele>
        <time>2019-12-19T17:18:19Z</time>
      </trkpt>
      <trkpt lat="43.30663" lon="-1.58814">
        <ele>78</ele>
        <time>2019-12-19T17:18:42Z</time>
      </trkpt>
      <trkpt lat="43.30663" lon="-1.58776">
        <ele>75</ele>
        <time>2019-12-19T17:18:56Z</time>
      </trkpt>
      <trkpt lat="43.30673" lon="-1.58737">
        <ele>73</ele>
        <time>2019-12-19T17:19:11Z</time>
      </trkpt>
      <trkpt lat="43.30674" lon="-1.5869">
        <ele>71</ele>
        <time>2019-12-19T17:19:28Z</time>
      </trkpt>
      <trkpt lat="43.30682" lon="-1.58676">
        <ele>71</ele>
        <time>2019-12-19T17:19:34Z</time>
      </trkpt>
      <trkpt lat="43.30711" lon="-1.58654">
        <ele>70</ele>
        <time>2019-12-19T17:19:51Z</time>
      </trkpt>
      <trkpt lat="43.30732" lon="-1.58622">
        <ele>70</ele>
        <time>2019-12-19T17:20:07Z</time>
      </trkpt>
      <trkpt lat="43.30756" lon="-1.58551">
        <ele>69</ele>
        <time>2019-12-19T17:20:35Z</time>
      </trkpt>
      <trkpt lat="43.30774" lon="-1.58511">
        <ele>68</ele>
        <time>2019-12-19T17:20:52Z</time>
      </trkpt>
      <trkpt lat="43.30784" lon="-1.5848">
        <ele>67</ele>
        <time>2019-12-19T17:21:05Z</time>
      </trkpt>
      <trkpt lat="43.30785" lon="-1.58463">
        <ele>66</ele>
        <time>2019-12-19T17:21:11Z</time>
      </trkpt>
      <trkpt lat="43.30781" lon="-1.58437">
        <ele>66</ele>
        <time>2019-12-19T17:21:21Z</time>
      </trkpt>
      <trkpt lat="43.30781" lon="-1.58405">
        <ele>65</ele>
        <time>2019-12-19T17:21:32Z</time>
      </trkpt>
      <trkpt lat="43.30803" lon="-1.58307">
        <ele>62</ele>
        <time>2019-12-19T17:22:10Z</time>
      </trkpt>
      <trkpt lat="43.30807" lon="-1.58265">
        <ele>60</ele>
        <time>2019-12-19T17:22:25Z</time>
      </trkpt>
      <trkpt lat="43.30807" lon="-1.58237">
        <ele>59</ele>
        <time>2019-12-19T17:22:35Z</time>
      </trkpt>
      <trkpt lat="43.30805" lon="-1.5821">
        <ele>59</ele>
        <time>2019-12-19T17:22:45Z</time>
      </trkpt>
      <trkpt lat="43.30799" lon="-1.58184">
        <ele>58</ele>
        <time>2019-12-19T17:22:55Z</time>
      </trkpt>
      <trkpt lat="43.30778" lon="-1.58149">
        <ele>58</ele>
        <time>2019-12-19T17:23:12Z</time>
      </trkpt>
      <trkpt lat="43.30766" lon="-1.5812">
        <ele>59</ele>
        <time>2019-12-19T17:23:24Z</time>
      </trkpt>
      <trkpt lat="43.30769" lon="-1.58111">
        <ele>58</ele>
        <time>2019-12-19T17:23:27Z</time>
      </trkpt>
      <trkpt lat="43.30783" lon="-1.58094">
        <ele>58</ele>
        <time>2019-12-19T17:23:37Z</time>
      </trkpt>
      <trkpt lat="43.30821" lon="-1.58061">
        <ele>55</ele>
        <time>2019-12-19T17:23:59Z</time>
      </trkpt>
      <trkpt lat="43.30844" lon="-1.58053">
        <ele>55</ele>
        <time>2019-12-19T17:24:11Z</time>
      </trkpt>
      <trkpt lat="43.30876" lon="-1.58035">
        <ele>55</ele>
        <time>2019-12-19T17:24:28Z</time>
      </trkpt>
      <trkpt lat="43.30903" lon="-1.58029">
        <ele>55</ele>
        <time>2019-12-19T17:24:42Z</time>
      </trkpt>
      <trkpt lat="43.30933" lon="-1.58014">
        <ele>55</ele>
        <time>2019-12-19T17:24:58Z</time>
      </trkpt>
      <trkpt lat="43.30966" lon="-1.58001">
        <ele>55</ele>
        <time>2019-12-19T17:25:15Z</time>
      </trkpt>
      <trkpt lat="43.30998" lon="-1.57999">
        <ele>55</ele>
        <time>2019-12-19T17:25:31Z</time>
      </trkpt>
      <trkpt lat="43.3102" lon="-1.58003">
        <ele>58</ele>
        <time>2019-12-19T17:25:42Z</time>
      </trkpt>
      <trkpt lat="43.31085" lon="-1.58026">
        <ele>66</ele>
        <time>2019-12-19T17:26:16Z</time>
      </trkpt>
      <trkpt lat="43.31102" lon="-1.58028">
        <ele>68</ele>
        <time>2019-12-19T17:26:24Z</time>
      </trkpt>
      <trkpt lat="43.31131" lon="-1.58025">
        <ele>72</ele>
        <time>2019-12-19T17:26:39Z</time>
      </trkpt>
      <trkpt lat="43.31151" lon="-1.58027">
        <ele>75</ele>
        <time>2019-12-19T17:26:49Z</time>
      </trkpt>
      <trkpt lat="43.31192" lon="-1.58033">
        <ele>78</ele>
        <time>2019-12-19T17:27:10Z</time>
      </trkpt>
      <trkpt lat="43.312" lon="-1.5804">
        <ele>77</ele>
        <time>2019-12-19T17:27:14Z</time>
      </trkpt>
      <trkpt lat="43.31247" lon="-1.58031">
        <ele>79</ele>
        <time>2019-12-19T17:27:38Z</time>
      </trkpt>
      <trkpt lat="43.31258" lon="-1.58026">
        <ele>79</ele>
        <time>2019-12-19T17:27:44Z</time>
      </trkpt>
      <trkpt lat="43.31268" lon="-1.58012">
        <ele>79</ele>
        <time>2019-12-19T17:27:51Z</time>
      </trkpt>
      <trkpt lat="43.31273" lon="-1.58">
        <ele>79</ele>
        <time>2019-12-19T17:27:56Z</time>
      </trkpt>
      <trkpt lat="43.31271" lon="-1.57992">
        <ele>79</ele>
        <time>2019-12-19T17:27:59Z</time>
      </trkpt>
      <trkpt lat="43.31267" lon="-1.57989">
        <ele>79</ele>
        <time>2019-12-19T17:28:01Z</time>
      </trkpt>
      <trkpt lat="43.31265" lon="-1.5799">
        <ele>79</ele>
        <time>2019-12-19T17:28:03Z</time>
      </trkpt>
    </trkseg>
  </trk>
</gpx>